<?xml version="1.0" encoding="utf-8"?>
<gpx xmlns:xsi="http://www.w3.org/2001/XMLSchema-instance" xmlns:xsd="http://www.w3.org/2001/XMLSchema" version="1.1" creator="Shapelink.com" xmlns="http://www.topografix.com/GPX/1/1" xmlns:gpxtpx="http://www.garmin.com/xmlschemas/TrackPointExtension/v1">
  <metadata>
    <name>Ejecutar 8.98 km, 2020-03-03</name>
    <desc></desc>
    <author><name>Per Rooth</name></author> 
    <time>2020-03-03T18:06:45Z</time>
  </metadata>
  <trk>
    <name>Ejecutar 8.98 km, 2020-03-03</name>
    <trkseg>
      <trkpt lat="56.891191216314" lon="14.823894991837">
        <ele>171</ele>
        <time>2020-03-03T18:06:45Z</time>
      </trkpt>
      <trkpt lat="56.891135895774" lon="14.823936733699">
        <ele>173</ele>
        <time>2020-03-03T18:06:48Z</time>
      </trkpt>
      <trkpt lat="56.89102978092" lon="14.824200092997">
        <ele>172.2</ele>
        <time>2020-03-03T18:06:56Z</time>
      </trkpt>
      <trkpt lat="56.89101972264" lon="14.824237392452">
        <ele>171.8</ele>
        <time>2020-03-03T18:06:57Z</time>
      </trkpt>
      <trkpt lat="56.89089231776" lon="14.824509468926">
        <ele>171.6</ele>
        <time>2020-03-03T18:07:05Z</time>
      </trkpt>
      <trkpt lat="56.890840685256" lon="14.824668808845">
        <ele>170.4</ele>
        <time>2020-03-03T18:07:09Z</time>
      </trkpt>
      <trkpt lat="56.890783185422" lon="14.824864358572">
        <ele>169.2</ele>
        <time>2020-03-03T18:07:13Z</time>
      </trkpt>
      <trkpt lat="56.890714202385" lon="14.825026799794">
        <ele>168.2</ele>
        <time>2020-03-03T18:07:17Z</time>
      </trkpt>
      <trkpt lat="56.890695762205" lon="14.825061333222">
        <ele>167.8</ele>
        <time>2020-03-03T18:07:18Z</time>
      </trkpt>
      <trkpt lat="56.890556035932" lon="14.825300217372">
        <ele>167.8</ele>
        <time>2020-03-03T18:07:25Z</time>
      </trkpt>
      <trkpt lat="56.890466014326" lon="14.825625183635">
        <ele>167.6</ele>
        <time>2020-03-03T18:07:32Z</time>
      </trkpt>
      <trkpt lat="56.890441036264" lon="14.825734818887">
        <ele>167.2</ele>
        <time>2020-03-03T18:07:34Z</time>
      </trkpt>
      <trkpt lat="56.890428966328" lon="14.825785613201">
        <ele>167</ele>
        <time>2020-03-03T18:07:35Z</time>
      </trkpt>
      <trkpt lat="56.890364341879" lon="14.826102113745">
        <ele>166.4</ele>
        <time>2020-03-03T18:07:41Z</time>
      </trkpt>
      <trkpt lat="56.89033827417" lon="14.826436803012">
        <ele>166.6</ele>
        <time>2020-03-03T18:07:48Z</time>
      </trkpt>
      <trkpt lat="56.890339531455" lon="14.826532859586">
        <ele>166.6</ele>
        <time>2020-03-03T18:07:50Z</time>
      </trkpt>
      <trkpt lat="56.89034330331" lon="14.826704604717">
        <ele>166.6</ele>
        <time>2020-03-03T18:07:54Z</time>
      </trkpt>
      <trkpt lat="56.890304495113" lon="14.827009119144">
        <ele>166</ele>
        <time>2020-03-03T18:08:03Z</time>
      </trkpt>
      <trkpt lat="56.890302483457" lon="14.827205087966">
        <ele>166</ele>
        <time>2020-03-03T18:08:09Z</time>
      </trkpt>
      <trkpt lat="56.890279852327" lon="14.827471800024">
        <ele>165.8</ele>
        <time>2020-03-03T18:08:15Z</time>
      </trkpt>
      <trkpt lat="56.890271470427" lon="14.827542459441">
        <ele>165.8</ele>
        <time>2020-03-03T18:08:17Z</time>
      </trkpt>
      <trkpt lat="56.890263004708" lon="14.827923416796">
        <ele>165.8</ele>
        <time>2020-03-03T18:08:23Z</time>
      </trkpt>
      <trkpt lat="56.890200308096" lon="14.828230194336">
        <ele>166</ele>
        <time>2020-03-03T18:08:29Z</time>
      </trkpt>
      <trkpt lat="56.890140880425" lon="14.828274450768">
        <ele>166</ele>
        <time>2020-03-03T18:08:31Z</time>
      </trkpt>
      <trkpt lat="56.890016325391" lon="14.828535211677">
        <ele>166.8</ele>
        <time>2020-03-03T18:08:38Z</time>
      </trkpt>
      <trkpt lat="56.8899250465" lon="14.828865709994">
        <ele>165.8</ele>
        <time>2020-03-03T18:08:46Z</time>
      </trkpt>
      <trkpt lat="56.88990157718" lon="14.829077604426">
        <ele>166.2</ele>
        <time>2020-03-03T18:08:51Z</time>
      </trkpt>
      <trkpt lat="56.88989319528" lon="14.829249349557">
        <ele>166</ele>
        <time>2020-03-03T18:08:55Z</time>
      </trkpt>
      <trkpt lat="56.889804011864" lon="14.82934548995">
        <ele>165.6</ele>
        <time>2020-03-03T18:08:59Z</time>
      </trkpt>
      <trkpt lat="56.889623968652" lon="14.829333922928">
        <ele>166</ele>
        <time>2020-03-03T18:09:05Z</time>
      </trkpt>
      <trkpt lat="56.889431604047" lon="14.829408940933">
        <ele>165.6</ele>
        <time>2020-03-03T18:09:13Z</time>
      </trkpt>
      <trkpt lat="56.889245106772" lon="14.829445486017">
        <ele>165.6</ele>
        <time>2020-03-03T18:09:21Z</time>
      </trkpt>
      <trkpt lat="56.889221972728" lon="14.829451520985">
        <ele>165.4</ele>
        <time>2020-03-03T18:09:22Z</time>
      </trkpt>
      <trkpt lat="56.889182242522" lon="14.829466608405">
        <ele>165</ele>
        <time>2020-03-03T18:09:24Z</time>
      </trkpt>
      <trkpt lat="56.889038995851" lon="14.829540955858">
        <ele>164.6</ele>
        <time>2020-03-03T18:09:30Z</time>
      </trkpt>
      <trkpt lat="56.888836070052" lon="14.829565011911">
        <ele>164.8</ele>
        <time>2020-03-03T18:09:38Z</time>
      </trkpt>
      <trkpt lat="56.888650830062" lon="14.829649166187">
        <ele>164.4</ele>
        <time>2020-03-03T18:09:46Z</time>
      </trkpt>
      <trkpt lat="56.888517976947" lon="14.82991629734">
        <ele>164.8</ele>
        <time>2020-03-03T18:09:53Z</time>
      </trkpt>
      <trkpt lat="56.888446730797" lon="14.830215028256">
        <ele>165.4</ele>
        <time>2020-03-03T18:10:00Z</time>
      </trkpt>
      <trkpt lat="56.888414460482" lon="14.830510238774">
        <ele>165.2</ele>
        <time>2020-03-03T18:10:06Z</time>
      </trkpt>
      <trkpt lat="56.888376825751" lon="14.830854902502">
        <ele>165.6</ele>
        <time>2020-03-03T18:10:13Z</time>
      </trkpt>
      <trkpt lat="56.888368192394" lon="14.830903266065">
        <ele>166</ele>
        <time>2020-03-03T18:10:14Z</time>
      </trkpt>
      <trkpt lat="56.888363666168" lon="14.831172492693">
        <ele>167</ele>
        <time>2020-03-03T18:10:20Z</time>
      </trkpt>
      <trkpt lat="56.888354529897" lon="14.831352787362">
        <ele>168.2</ele>
        <time>2020-03-03T18:10:25Z</time>
      </trkpt>
      <trkpt lat="56.888333491328" lon="14.831464015175">
        <ele>168.8</ele>
        <time>2020-03-03T18:10:28Z</time>
      </trkpt>
      <trkpt lat="56.888324522695" lon="14.831503577743">
        <ele>169.4</ele>
        <time>2020-03-03T18:10:29Z</time>
      </trkpt>
      <trkpt lat="56.888289151077" lon="14.831717316193">
        <ele>170.4</ele>
        <time>2020-03-03T18:10:34Z</time>
      </trkpt>
      <trkpt lat="56.88828806143" lon="14.83181060674">
        <ele>170.6</ele>
        <time>2020-03-03T18:10:36Z</time>
      </trkpt>
      <trkpt lat="56.88827884134" lon="14.831897191767">
        <ele>171.4</ele>
        <time>2020-03-03T18:10:38Z</time>
      </trkpt>
      <trkpt lat="56.888279511892" lon="14.831942789303">
        <ele>171.8</ele>
        <time>2020-03-03T18:10:39Z</time>
      </trkpt>
      <trkpt lat="56.888300047547" lon="14.83227328762">
        <ele>173</ele>
        <time>2020-03-03T18:10:46Z</time>
      </trkpt>
      <trkpt lat="56.888313374768" lon="14.832622309936">
        <ele>173.6</ele>
        <time>2020-03-03T18:10:54Z</time>
      </trkpt>
      <trkpt lat="56.888314548234" lon="14.832855410575">
        <ele>174</ele>
        <time>2020-03-03T18:10:59Z</time>
      </trkpt>
      <trkpt lat="56.888328629826" lon="14.833228405125">
        <ele>174.6</ele>
        <time>2020-03-03T18:11:06Z</time>
      </trkpt>
      <trkpt lat="56.888338855744" lon="14.83343334258">
        <ele>175</ele>
        <time>2020-03-03T18:11:10Z</time>
      </trkpt>
      <trkpt lat="56.88832829455" lon="14.833784376552">
        <ele>175.6</ele>
        <time>2020-03-03T18:11:19Z</time>
      </trkpt>
      <trkpt lat="56.888331312034" lon="14.834071456627">
        <ele>176</ele>
        <time>2020-03-03T18:11:25Z</time>
      </trkpt>
      <trkpt lat="56.88831739808" lon="14.834412683776">
        <ele>176.4</ele>
        <time>2020-03-03T18:11:33Z</time>
      </trkpt>
      <trkpt lat="56.888315470243" lon="14.834524079227">
        <ele>177.2</ele>
        <time>2020-03-03T18:11:36Z</time>
      </trkpt>
      <trkpt lat="56.888314715872" lon="14.834608987874">
        <ele>177.8</ele>
        <time>2020-03-03T18:11:38Z</time>
      </trkpt>
      <trkpt lat="56.888308932361" lon="14.834728429949">
        <ele>178.2</ele>
        <time>2020-03-03T18:11:41Z</time>
      </trkpt>
      <trkpt lat="56.888298706443" lon="14.835094216065">
        <ele>178.8</ele>
        <time>2020-03-03T18:11:49Z</time>
      </trkpt>
      <trkpt lat="56.888290576" lon="14.835423038002">
        <ele>178.2</ele>
        <time>2020-03-03T18:11:57Z</time>
      </trkpt>
      <trkpt lat="56.888259898246" lon="14.835775748354">
        <ele>177.8</ele>
        <time>2020-03-03T18:12:05Z</time>
      </trkpt>
      <trkpt lat="56.888222766429" lon="14.835966604217">
        <ele>177</ele>
        <time>2020-03-03T18:12:09Z</time>
      </trkpt>
      <trkpt lat="56.888140707628" lon="14.836296934896">
        <ele>177</ele>
        <time>2020-03-03T18:12:17Z</time>
      </trkpt>
      <trkpt lat="56.88806258832" lon="14.836594659984">
        <ele>177.8</ele>
        <time>2020-03-03T18:12:23Z</time>
      </trkpt>
      <trkpt lat="56.888057642999" lon="14.836648304144">
        <ele>178</ele>
        <time>2020-03-03T18:12:24Z</time>
      </trkpt>
      <trkpt lat="56.888045405425" lon="14.836750982419">
        <ele>177.8</ele>
        <time>2020-03-03T18:12:26Z</time>
      </trkpt>
      <trkpt lat="56.888030401824" lon="14.837060106891">
        <ele>178.6</ele>
        <time>2020-03-03T18:12:33Z</time>
      </trkpt>
      <trkpt lat="56.888012045463" lon="14.837250878935">
        <ele>179</ele>
        <time>2020-03-03T18:12:37Z</time>
      </trkpt>
      <trkpt lat="56.887985139564" lon="14.837620772182">
        <ele>178.8</ele>
        <time>2020-03-03T18:12:45Z</time>
      </trkpt>
      <trkpt lat="56.88796619647" lon="14.837878096512">
        <ele>178.6</ele>
        <time>2020-03-03T18:12:50Z</time>
      </trkpt>
      <trkpt lat="56.887921353305" lon="14.838309261448">
        <ele>178</ele>
        <time>2020-03-03T18:13:19Z</time>
      </trkpt>
      <trkpt lat="56.887917413812" lon="14.838328623637">
        <ele>178</ele>
        <time>2020-03-03T18:13:20Z</time>
      </trkpt>
      <trkpt lat="56.887903667496" lon="14.83844236602">
        <ele>178.2</ele>
        <time>2020-03-03T18:13:23Z</time>
      </trkpt>
      <trkpt lat="56.887832253708" lon="14.838775211269">
        <ele>178.4</ele>
        <time>2020-03-03T18:13:31Z</time>
      </trkpt>
      <trkpt lat="56.887817417745" lon="14.83886397559">
        <ele>179</ele>
        <time>2020-03-03T18:13:33Z</time>
      </trkpt>
      <trkpt lat="56.88781951322" lon="14.839215931571">
        <ele>179.6</ele>
        <time>2020-03-03T18:13:41Z</time>
      </trkpt>
      <trkpt lat="56.887908696636" lon="14.839506532044">
        <ele>179.2</ele>
        <time>2020-03-03T18:13:47Z</time>
      </trkpt>
      <trkpt lat="56.887984552831" lon="14.83971557663">
        <ele>178.8</ele>
        <time>2020-03-03T18:13:52Z</time>
      </trkpt>
      <trkpt lat="56.887360352738" lon="14.838832459646">
        <ele>178.8</ele>
        <time>2020-03-03T18:19:51Z</time>
      </trkpt>
      <trkpt lat="56.887200929" lon="14.839067152846">
        <ele>179</ele>
        <time>2020-03-03T18:20:02Z</time>
      </trkpt>
      <trkpt lat="56.887067908247" lon="14.839162035954">
        <ele>178.6</ele>
        <time>2020-03-03T18:20:08Z</time>
      </trkpt>
      <trkpt lat="56.886887026845" lon="14.839003701863">
        <ele>178.6</ele>
        <time>2020-03-03T18:23:30Z</time>
      </trkpt>
      <trkpt lat="56.886877303841" lon="14.838988279167">
        <ele>178.4</ele>
        <time>2020-03-03T18:23:31Z</time>
      </trkpt>
      <trkpt lat="56.886694997516" lon="14.838837824062">
        <ele>179</ele>
        <time>2020-03-03T18:23:41Z</time>
      </trkpt>
      <trkpt lat="56.886526102231" lon="14.838643112525">
        <ele>179.4</ele>
        <time>2020-03-03T18:23:50Z</time>
      </trkpt>
      <trkpt lat="56.886367181407" lon="14.838414621931">
        <ele>180</ele>
        <time>2020-03-03T18:23:59Z</time>
      </trkpt>
      <trkpt lat="56.88630993303" lon="14.83831999028">
        <ele>180</ele>
        <time>2020-03-03T18:24:02Z</time>
      </trkpt>
      <trkpt lat="56.886162914504" lon="14.83810289907">
        <ele>180.2</ele>
        <time>2020-03-03T18:24:09Z</time>
      </trkpt>
      <trkpt lat="56.88601321377" lon="14.837909025723">
        <ele>180.2</ele>
        <time>2020-03-03T18:24:16Z</time>
      </trkpt>
      <trkpt lat="56.885850437272" lon="14.83775505022">
        <ele>179.8</ele>
        <time>2020-03-03T18:24:23Z</time>
      </trkpt>
      <trkpt lat="56.88570140709" lon="14.837596213215">
        <ele>178.8</ele>
        <time>2020-03-03T18:24:30Z</time>
      </trkpt>
      <trkpt lat="56.885653965536" lon="14.837543910159">
        <ele>177.8</ele>
        <time>2020-03-03T18:24:32Z</time>
      </trkpt>
      <trkpt lat="56.8855413128" lon="14.837423881351">
        <ele>176.6</ele>
        <time>2020-03-03T18:24:37Z</time>
      </trkpt>
      <trkpt lat="56.885420781078" lon="14.837298991041">
        <ele>176</ele>
        <time>2020-03-03T18:24:42Z</time>
      </trkpt>
      <trkpt lat="56.885278707873" lon="14.837162701347">
        <ele>175.6</ele>
        <time>2020-03-03T18:24:48Z</time>
      </trkpt>
      <trkpt lat="56.885158008513" lon="14.83701325207">
        <ele>174.2</ele>
        <time>2020-03-03T18:24:53Z</time>
      </trkpt>
      <trkpt lat="56.885028256701" lon="14.836804375122">
        <ele>173.2</ele>
        <time>2020-03-03T18:24:58Z</time>
      </trkpt>
      <trkpt lat="56.884900851821" lon="14.836564988058">
        <ele>173.2</ele>
        <time>2020-03-03T18:25:03Z</time>
      </trkpt>
      <trkpt lat="56.884741176626" lon="14.836345466097">
        <ele>173.2</ele>
        <time>2020-03-03T18:25:10Z</time>
      </trkpt>
      <trkpt lat="56.884582339621" lon="14.836163914143">
        <ele>173.6</ele>
        <time>2020-03-03T18:25:16Z</time>
      </trkpt>
      <trkpt lat="56.884492485653" lon="14.836066432646">
        <ele>174.4</ele>
        <time>2020-03-03T18:25:19Z</time>
      </trkpt>
      <trkpt lat="56.884333648648" lon="14.835858729164">
        <ele>173.4</ele>
        <time>2020-03-03T18:25:26Z</time>
      </trkpt>
      <trkpt lat="56.884215966772" lon="14.835721266004">
        <ele>172.2</ele>
        <time>2020-03-03T18:25:30Z</time>
      </trkpt>
      <trkpt lat="56.884126615718" lon="14.835632585502">
        <ele>170.8</ele>
        <time>2020-03-03T18:25:33Z</time>
      </trkpt>
      <trkpt lat="56.884027876936" lon="14.835504845346">
        <ele>169.2</ele>
        <time>2020-03-03T18:25:37Z</time>
      </trkpt>
      <trkpt lat="56.883950260542" lon="14.835383559253">
        <ele>168</ele>
        <time>2020-03-03T18:25:41Z</time>
      </trkpt>
      <trkpt lat="56.883916481485" lon="14.835354725517">
        <ele>167.8</ele>
        <time>2020-03-03T18:25:43Z</time>
      </trkpt>
      <trkpt lat="56.883885216998" lon="14.835320611184">
        <ele>167.6</ele>
        <time>2020-03-03T18:25:46Z</time>
      </trkpt>
      <trkpt lat="56.883865603352" lon="14.83531843189">
        <ele>167.6</ele>
        <time>2020-03-03T18:25:47Z</time>
      </trkpt>
      <trkpt lat="56.88382721425" lon="14.835124390905">
        <ele>167</ele>
        <time>2020-03-03T18:26:59Z</time>
      </trkpt>
      <trkpt lat="56.883803074378" lon="14.835100251033">
        <ele>166.4</ele>
        <time>2020-03-03T18:27:01Z</time>
      </trkpt>
      <trkpt lat="56.883765439647" lon="14.835050630185">
        <ele>166.2</ele>
        <time>2020-03-03T18:27:03Z</time>
      </trkpt>
      <trkpt lat="56.883591766679" lon="14.834907970247">
        <ele>167.2</ele>
        <time>2020-03-03T18:27:10Z</time>
      </trkpt>
      <trkpt lat="56.883566788617" lon="14.834898833976">
        <ele>167.4</ele>
        <time>2020-03-03T18:27:11Z</time>
      </trkpt>
      <trkpt lat="56.883381213351" lon="14.83485072187">
        <ele>168.2</ele>
        <time>2020-03-03T18:27:18Z</time>
      </trkpt>
      <trkpt lat="56.88333100577" lon="14.834841082685">
        <ele>168.4</ele>
        <time>2020-03-03T18:27:20Z</time>
      </trkpt>
      <trkpt lat="56.883130929817" lon="14.834748043595">
        <ele>168</ele>
        <time>2020-03-03T18:27:28Z</time>
      </trkpt>
      <trkpt lat="56.882980307074" lon="14.834534305145">
        <ele>168.2</ele>
        <time>2020-03-03T18:27:35Z</time>
      </trkpt>
      <trkpt lat="56.882903277413" lon="14.834357698512">
        <ele>168.2</ele>
        <time>2020-03-03T18:27:40Z</time>
      </trkpt>
      <trkpt lat="56.882988688974" lon="14.834065254021">
        <ele>168.2</ele>
        <time>2020-03-03T18:27:48Z</time>
      </trkpt>
      <trkpt lat="56.883063036427" lon="14.833909099224">
        <ele>167.4</ele>
        <time>2020-03-03T18:27:53Z</time>
      </trkpt>
      <trkpt lat="56.883139563174" lon="14.833708939452">
        <ele>166.4</ele>
        <time>2020-03-03T18:28:00Z</time>
      </trkpt>
      <trkpt lat="56.883146687789" lon="14.833689409625">
        <ele>166.2</ele>
        <time>2020-03-03T18:28:01Z</time>
      </trkpt>
      <trkpt lat="56.883237212309" lon="14.833653535093">
        <ele>166</ele>
        <time>2020-03-03T18:28:05Z</time>
      </trkpt>
      <trkpt lat="56.883400407902" lon="14.833812036822">
        <ele>167.4</ele>
        <time>2020-03-03T18:28:10Z</time>
      </trkpt>
      <trkpt lat="56.883431504751" lon="14.833844390956">
        <ele>168</ele>
        <time>2020-03-03T18:28:11Z</time>
      </trkpt>
      <trkpt lat="56.883535775587" lon="14.833939106426">
        <ele>168.4</ele>
        <time>2020-03-03T18:28:14Z</time>
      </trkpt>
      <trkpt lat="56.883704587053" lon="14.834068606781">
        <ele>168.4</ele>
        <time>2020-03-03T18:28:18Z</time>
      </trkpt>
      <trkpt lat="56.883902902807" lon="14.834171368875">
        <ele>168.2</ele>
        <time>2020-03-03T18:28:23Z</time>
      </trkpt>
      <trkpt lat="56.884021841968" lon="14.834241693016">
        <ele>167.8</ele>
        <time>2020-03-03T18:28:26Z</time>
      </trkpt>
      <trkpt lat="56.884097865801" lon="14.834268766553">
        <ele>167.4</ele>
        <time>2020-03-03T18:28:28Z</time>
      </trkpt>
      <trkpt lat="56.884231389468" lon="14.834432716517">
        <ele>166.8</ele>
        <time>2020-03-03T18:28:32Z</time>
      </trkpt>
      <trkpt lat="56.884350580086" lon="14.834736476573">
        <ele>167.2</ele>
        <time>2020-03-03T18:28:38Z</time>
      </trkpt>
      <trkpt lat="56.884425765729" lon="14.834894810664">
        <ele>168.6</ele>
        <time>2020-03-03T18:28:41Z</time>
      </trkpt>
      <trkpt lat="56.884522995769" lon="14.835147608768">
        <ele>169.6</ele>
        <time>2020-03-03T18:28:45Z</time>
      </trkpt>
      <trkpt lat="56.884632379564" lon="14.835446339684">
        <ele>170</ele>
        <time>2020-03-03T18:28:50Z</time>
      </trkpt>
      <trkpt lat="56.884666493897" lon="14.835537618575">
        <ele>170.6</ele>
        <time>2020-03-03T18:28:52Z</time>
      </trkpt>
      <trkpt lat="56.884740673712" lon="14.835695114476">
        <ele>172.2</ele>
        <time>2020-03-03T18:28:56Z</time>
      </trkpt>
      <trkpt lat="56.884817619554" lon="14.835723193841">
        <ele>173.2</ele>
        <time>2020-03-03T18:28:58Z</time>
      </trkpt>
      <trkpt lat="56.885022557009" lon="14.835784716987">
        <ele>174</ele>
        <time>2020-03-03T18:29:03Z</time>
      </trkpt>
      <trkpt lat="56.88523202069" lon="14.835741885478">
        <ele>174</ele>
        <time>2020-03-03T18:29:08Z</time>
      </trkpt>
      <trkpt lat="56.885412482997" lon="14.835654126985">
        <ele>173.2</ele>
        <time>2020-03-03T18:29:13Z</time>
      </trkpt>
      <trkpt lat="56.885608284181" lon="14.835530913055">
        <ele>173</ele>
        <time>2020-03-03T18:29:18Z</time>
      </trkpt>
      <trkpt lat="56.885810539428" lon="14.835425133477">
        <ele>172.2</ele>
        <time>2020-03-03T18:29:23Z</time>
      </trkpt>
      <trkpt lat="56.885914223531" lon="14.835404094908">
        <ele>174.4</ele>
        <time>2020-03-03T18:29:27Z</time>
      </trkpt>
      <trkpt lat="56.885947751131" lon="14.835395880646">
        <ele>175.6</ele>
        <time>2020-03-03T18:29:28Z</time>
      </trkpt>
      <trkpt lat="56.886069456319" lon="14.835397892302">
        <ele>176.8</ele>
        <time>2020-03-03T18:29:32Z</time>
      </trkpt>
      <trkpt lat="56.886169284748" lon="14.835428486237">
        <ele>176.2</ele>
        <time>2020-03-03T18:29:40Z</time>
      </trkpt>
      <trkpt lat="56.886253103748" lon="14.835454973041">
        <ele>176</ele>
        <time>2020-03-03T18:29:46Z</time>
      </trkpt>
      <trkpt lat="56.886286044615" lon="14.83547182066">
        <ele>176</ele>
        <time>2020-03-03T18:29:49Z</time>
      </trkpt>
      <trkpt lat="56.886382604103" lon="14.835535858376">
        <ele>176.4</ele>
        <time>2020-03-03T18:29:56Z</time>
      </trkpt>
      <trkpt lat="56.886506991499" lon="14.835814137456">
        <ele>176.2</ele>
        <time>2020-03-03T18:30:02Z</time>
      </trkpt>
      <trkpt lat="56.886580752219" lon="14.83600742407">
        <ele>176.2</ele>
        <time>2020-03-03T18:30:05Z</time>
      </trkpt>
      <trkpt lat="56.886609753593" lon="14.836104318834">
        <ele>176.6</ele>
        <time>2020-03-03T18:30:07Z</time>
      </trkpt>
      <trkpt lat="56.886622074986" lon="14.836259216346">
        <ele>178</ele>
        <time>2020-03-03T18:30:10Z</time>
      </trkpt>
      <trkpt lat="56.886680999743" lon="14.836542859842">
        <ele>178</ele>
        <time>2020-03-03T18:30:14Z</time>
      </trkpt>
      <trkpt lat="56.886723831252" lon="14.836795909403">
        <ele>176.4</ele>
        <time>2020-03-03T18:30:17Z</time>
      </trkpt>
      <trkpt lat="56.886799687447" lon="14.837093299215">
        <ele>175.2</ele>
        <time>2020-03-03T18:30:21Z</time>
      </trkpt>
      <trkpt lat="56.886862551697" lon="14.837452631268">
        <ele>175.2</ele>
        <time>2020-03-03T18:30:26Z</time>
      </trkpt>
      <trkpt lat="56.886895324926" lon="14.837633428851">
        <ele>176.4</ele>
        <time>2020-03-03T18:30:29Z</time>
      </trkpt>
      <trkpt lat="56.88701149806" lon="14.837915815062">
        <ele>177.4</ele>
        <time>2020-03-03T18:30:34Z</time>
      </trkpt>
      <trkpt lat="56.887075954871" lon="14.838097702292">
        <ele>178.6</ele>
        <time>2020-03-03T18:30:37Z</time>
      </trkpt>
      <trkpt lat="56.887218111895" lon="14.838414789569">
        <ele>179.4</ele>
        <time>2020-03-03T18:30:42Z</time>
      </trkpt>
      <trkpt lat="56.887352809028" lon="14.838682591274">
        <ele>178.6</ele>
        <time>2020-03-03T18:30:47Z</time>
      </trkpt>
      <trkpt lat="56.887502342124" lon="14.839051646331">
        <ele>177.8</ele>
        <time>2020-03-03T18:30:56Z</time>
      </trkpt>
      <trkpt lat="56.887499576097" lon="14.839028009373">
        <ele>178</ele>
        <time>2020-03-03T18:30:58Z</time>
      </trkpt>
      <trkpt lat="56.887471329094" lon="14.839029434296">
        <ele>178.4</ele>
        <time>2020-03-03T18:31:00Z</time>
      </trkpt>
      <trkpt lat="56.887441992444" lon="14.839055502005">
        <ele>179</ele>
        <time>2020-03-03T18:31:03Z</time>
      </trkpt>
      <trkpt lat="56.887403351885" lon="14.839074193642">
        <ele>179.4</ele>
        <time>2020-03-03T18:31:06Z</time>
      </trkpt>
      <trkpt lat="56.887213418031" lon="14.839117863341">
        <ele>179</ele>
        <time>2020-03-03T18:31:19Z</time>
      </trkpt>
      <trkpt lat="56.887038990692" lon="14.839152396769">
        <ele>178.6</ele>
        <time>2020-03-03T18:31:29Z</time>
      </trkpt>
      <trkpt lat="56.886920051531" lon="14.839118366255">
        <ele>178.6</ele>
        <time>2020-03-03T18:31:38Z</time>
      </trkpt>
      <trkpt lat="56.886893145632" lon="14.839099339342">
        <ele>178.2</ele>
        <time>2020-03-03T18:31:42Z</time>
      </trkpt>
      <trkpt lat="56.886853415426" lon="14.838988279167">
        <ele>178.4</ele>
        <time>2020-03-03T18:31:52Z</time>
      </trkpt>
      <trkpt lat="56.886840088205" lon="14.838978723801">
        <ele>178.4</ele>
        <time>2020-03-03T18:31:54Z</time>
      </trkpt>
      <trkpt lat="56.886828605002" lon="14.838975622498">
        <ele>178.4</ele>
        <time>2020-03-03T18:31:56Z</time>
      </trkpt>
      <trkpt lat="56.886822486215" lon="14.838960535078">
        <ele>178.4</ele>
        <time>2020-03-03T18:31:58Z</time>
      </trkpt>
      <trkpt lat="56.886815864514" lon="14.838956679404">
        <ele>178.6</ele>
        <time>2020-03-03T18:32:00Z</time>
      </trkpt>
      <trkpt lat="56.88681117065" lon="14.838943268364">
        <ele>178.4</ele>
        <time>2020-03-03T18:32:03Z</time>
      </trkpt>
      <trkpt lat="56.886767249494" lon="14.83888912129">
        <ele>178.8</ele>
        <time>2020-03-03T18:32:12Z</time>
      </trkpt>
      <trkpt lat="56.886736907016" lon="14.838881326123">
        <ele>177.8</ele>
        <time>2020-03-03T18:32:16Z</time>
      </trkpt>
      <trkpt lat="56.8866896331" lon="14.838901358864">
        <ele>178.6</ele>
        <time>2020-03-03T18:32:21Z</time>
      </trkpt>
      <trkpt lat="56.886673204576" lon="14.838897000276">
        <ele>179.6</ele>
        <time>2020-03-03T18:32:23Z</time>
      </trkpt>
      <trkpt lat="56.8866644874" lon="14.838879482105">
        <ele>179.8</ele>
        <time>2020-03-03T18:32:25Z</time>
      </trkpt>
      <trkpt lat="56.886650824903" lon="14.838877973363">
        <ele>179.8</ele>
        <time>2020-03-03T18:32:29Z</time>
      </trkpt>
      <trkpt lat="56.886595252906" lon="14.838855258414">
        <ele>180.2</ele>
        <time>2020-03-03T18:32:34Z</time>
      </trkpt>
      <trkpt lat="56.886469440587" lon="14.838614530246">
        <ele>179.4</ele>
        <time>2020-03-03T18:32:48Z</time>
      </trkpt>
      <trkpt lat="56.886458711755" lon="14.838571698737">
        <ele>179.4</ele>
        <time>2020-03-03T18:32:51Z</time>
      </trkpt>
      <trkpt lat="56.886422753404" lon="14.838544457562">
        <ele>179.6</ele>
        <time>2020-03-03T18:33:07Z</time>
      </trkpt>
      <trkpt lat="56.886406827794" lon="14.838544541381">
        <ele>179.6</ele>
        <time>2020-03-03T18:33:09Z</time>
      </trkpt>
      <trkpt lat="56.886392662383" lon="14.838538674051">
        <ele>179.6</ele>
        <time>2020-03-03T18:33:11Z</time>
      </trkpt>
      <trkpt lat="56.886342790078" lon="14.83845829163">
        <ele>179.4</ele>
        <time>2020-03-03T18:33:14Z</time>
      </trkpt>
      <trkpt lat="56.886213960275" lon="14.83821689291">
        <ele>180</ele>
        <time>2020-03-03T18:33:21Z</time>
      </trkpt>
      <trkpt lat="56.886083202635" lon="14.837979517502">
        <ele>180</ele>
        <time>2020-03-03T18:33:28Z</time>
      </trkpt>
      <trkpt lat="56.885912966246" lon="14.837771730201">
        <ele>179.8</ele>
        <time>2020-03-03T18:33:36Z</time>
      </trkpt>
      <trkpt lat="56.885749351558" lon="14.837612306463">
        <ele>179.2</ele>
        <time>2020-03-03T18:33:43Z</time>
      </trkpt>
      <trkpt lat="56.885678943598" lon="14.837535192983">
        <ele>178.6</ele>
        <time>2020-03-03T18:33:46Z</time>
      </trkpt>
      <trkpt lat="56.885613732416" lon="14.837463527738">
        <ele>177.2</ele>
        <time>2020-03-03T18:33:49Z</time>
      </trkpt>
      <trkpt lat="56.885490853762" lon="14.837378786729">
        <ele>176.2</ele>
        <time>2020-03-03T18:33:54Z</time>
      </trkpt>
      <trkpt lat="56.88531667788" lon="14.837228750719">
        <ele>175.4</ele>
        <time>2020-03-03T18:34:01Z</time>
      </trkpt>
      <trkpt lat="56.885297148053" lon="14.837201425725">
        <ele>175.2</ele>
        <time>2020-03-03T18:34:02Z</time>
      </trkpt>
      <trkpt lat="56.885136718487" lon="14.836988776922">
        <ele>174</ele>
        <time>2020-03-03T18:34:09Z</time>
      </trkpt>
      <trkpt lat="56.884977630025" lon="14.836765818382">
        <ele>173.2</ele>
        <time>2020-03-03T18:34:16Z</time>
      </trkpt>
      <trkpt lat="56.884838239028" lon="14.836528107698">
        <ele>173</ele>
        <time>2020-03-03T18:34:22Z</time>
      </trkpt>
      <trkpt lat="56.884818290106" lon="14.836493909546">
        <ele>172.8</ele>
        <time>2020-03-03T18:34:23Z</time>
      </trkpt>
      <trkpt lat="56.88467210977" lon="14.836281344562">
        <ele>173.2</ele>
        <time>2020-03-03T18:34:30Z</time>
      </trkpt>
      <trkpt lat="56.884608826425" lon="14.836199118123">
        <ele>171.6</ele>
        <time>2020-03-03T18:34:33Z</time>
      </trkpt>
      <trkpt lat="56.884536993542" lon="14.836081687704">
        <ele>173</ele>
        <time>2020-03-03T18:34:37Z</time>
      </trkpt>
      <trkpt lat="56.884378659451" lon="14.835867949254">
        <ele>172.4</ele>
        <time>2020-03-03T18:34:44Z</time>
      </trkpt>
      <trkpt lat="56.88427396952" lon="14.835735934329">
        <ele>171.6</ele>
        <time>2020-03-03T18:34:48Z</time>
      </trkpt>
      <trkpt lat="56.884209512709" lon="14.835681871074">
        <ele>170.6</ele>
        <time>2020-03-03T18:34:50Z</time>
      </trkpt>
      <trkpt lat="56.884152012875" lon="14.8356193421">
        <ele>169.4</ele>
        <time>2020-03-03T18:34:52Z</time>
      </trkpt>
      <trkpt lat="56.884043551089" lon="14.835476430705">
        <ele>168.2</ele>
        <time>2020-03-03T18:34:56Z</time>
      </trkpt>
      <trkpt lat="56.883938777339" lon="14.835354222603">
        <ele>167</ele>
        <time>2020-03-03T18:35:00Z</time>
      </trkpt>
      <trkpt lat="56.883783879827" lon="14.835176945418">
        <ele>166.4</ele>
        <time>2020-03-03T18:35:06Z</time>
      </trkpt>
      <trkpt lat="56.883611547963" lon="14.834992040704">
        <ele>166.4</ele>
        <time>2020-03-03T18:35:13Z</time>
      </trkpt>
      <trkpt lat="56.883534099207" lon="14.834964631891">
        <ele>166.6</ele>
        <time>2020-03-03T18:35:16Z</time>
      </trkpt>
      <trkpt lat="56.883342237516" lon="14.834852314431">
        <ele>167.2</ele>
        <time>2020-03-03T18:35:23Z</time>
      </trkpt>
      <trkpt lat="56.883154231499" lon="14.834719209859">
        <ele>167.2</ele>
        <time>2020-03-03T18:35:30Z</time>
      </trkpt>
      <trkpt lat="56.882992879924" lon="14.834547045633">
        <ele>167.6</ele>
        <time>2020-03-03T18:35:36Z</time>
      </trkpt>
      <trkpt lat="56.882909731476" lon="14.834256612798">
        <ele>167.6</ele>
        <time>2020-03-03T18:35:43Z</time>
      </trkpt>
      <trkpt lat="56.883035879071" lon="14.834030217679">
        <ele>167.2</ele>
        <time>2020-03-03T18:35:51Z</time>
      </trkpt>
      <trkpt lat="56.883125816858" lon="14.833750848952">
        <ele>166.4</ele>
        <time>2020-03-03T18:35:57Z</time>
      </trkpt>
      <trkpt lat="56.883173677507" lon="14.833631825972">
        <ele>166</ele>
        <time>2020-03-03T18:36:01Z</time>
      </trkpt>
      <trkpt lat="56.883199912854" lon="14.833629898135">
        <ele>166</ele>
        <time>2020-03-03T18:36:02Z</time>
      </trkpt>
      <trkpt lat="56.883293203401" lon="14.833708185081">
        <ele>164.6</ele>
        <time>2020-03-03T18:36:05Z</time>
      </trkpt>
      <trkpt lat="56.883328239743" lon="14.833741461224">
        <ele>166</ele>
        <time>2020-03-03T18:36:06Z</time>
      </trkpt>
      <trkpt lat="56.883360845334" lon="14.833772222797">
        <ele>166</ele>
        <time>2020-03-03T18:36:07Z</time>
      </trkpt>
      <trkpt lat="56.883437874995" lon="14.83383315921">
        <ele>165.8</ele>
        <time>2020-03-03T18:36:09Z</time>
      </trkpt>
      <trkpt lat="56.883478694848" lon="14.833858556367">
        <ele>164.8</ele>
        <time>2020-03-03T18:36:10Z</time>
      </trkpt>
      <trkpt lat="56.88351540757" lon="14.833898454211">
        <ele>165</ele>
        <time>2020-03-03T18:36:11Z</time>
      </trkpt>
      <trkpt lat="56.883727050545" lon="14.834044718366">
        <ele>165</ele>
        <time>2020-03-03T18:36:16Z</time>
      </trkpt>
      <trkpt lat="56.883813719391" lon="14.834102972571">
        <ele>165</ele>
        <time>2020-03-03T18:36:18Z</time>
      </trkpt>
      <trkpt lat="56.883957552795" lon="14.834220235352">
        <ele>164.8</ele>
        <time>2020-03-03T18:36:22Z</time>
      </trkpt>
      <trkpt lat="56.884120496931" lon="14.834330960251">
        <ele>163.6</ele>
        <time>2020-03-03T18:36:26Z</time>
      </trkpt>
      <trkpt lat="56.884152264332" lon="14.834358117607">
        <ele>163.6</ele>
        <time>2020-03-03T18:36:27Z</time>
      </trkpt>
      <trkpt lat="56.884217559333" lon="14.834490467808">
        <ele>163.2</ele>
        <time>2020-03-03T18:36:30Z</time>
      </trkpt>
      <trkpt lat="56.884277238461" lon="14.834610748073">
        <ele>163.6</ele>
        <time>2020-03-03T18:36:32Z</time>
      </trkpt>
      <trkpt lat="56.884376815433" lon="14.834890535895">
        <ele>164</ele>
        <time>2020-03-03T18:36:36Z</time>
      </trkpt>
      <trkpt lat="56.884428699394" lon="14.835021209716">
        <ele>164.2</ele>
        <time>2020-03-03T18:36:38Z</time>
      </trkpt>
      <trkpt lat="56.884473961654" lon="14.835141741438">
        <ele>164.8</ele>
        <time>2020-03-03T18:36:40Z</time>
      </trkpt>
      <trkpt lat="56.884525929434" lon="14.835295716941">
        <ele>166</ele>
        <time>2020-03-03T18:36:43Z</time>
      </trkpt>
      <trkpt lat="56.884618549429" lon="14.835583132292">
        <ele>166.6</ele>
        <time>2020-03-03T18:36:48Z</time>
      </trkpt>
      <trkpt lat="56.884626428415" lon="14.835633675149">
        <ele>167</ele>
        <time>2020-03-03T18:36:49Z</time>
      </trkpt>
      <trkpt lat="56.884677893281" lon="14.835746160247">
        <ele>168</ele>
        <time>2020-03-03T18:36:52Z</time>
      </trkpt>
      <trkpt lat="56.884726759758" lon="14.835801313149">
        <ele>169.4</ele>
        <time>2020-03-03T18:36:55Z</time>
      </trkpt>
      <trkpt lat="56.884831701146" lon="14.835784549349">
        <ele>170.4</ele>
        <time>2020-03-03T18:36:58Z</time>
      </trkpt>
      <trkpt lat="56.885040242818" lon="14.835766695902">
        <ele>171.6</ele>
        <time>2020-03-03T18:37:03Z</time>
      </trkpt>
      <trkpt lat="56.885222130048" lon="14.835720343995">
        <ele>171.6</ele>
        <time>2020-03-03T18:37:07Z</time>
      </trkpt>
      <trkpt lat="56.885303350659" lon="14.835692432268">
        <ele>170.4</ele>
        <time>2020-03-03T18:37:09Z</time>
      </trkpt>
      <trkpt lat="56.885493703608" lon="14.835586987966">
        <ele>169.4</ele>
        <time>2020-03-03T18:37:14Z</time>
      </trkpt>
      <trkpt lat="56.885573331658" lon="14.835537031842">
        <ele>169.4</ele>
        <time>2020-03-03T18:37:16Z</time>
      </trkpt>
      <trkpt lat="56.88569470157" lon="14.835494200333">
        <ele>169.4</ele>
        <time>2020-03-03T18:37:19Z</time>
      </trkpt>
      <trkpt lat="56.885812970179" lon="14.835469473728">
        <ele>169.2</ele>
        <time>2020-03-03T18:37:22Z</time>
      </trkpt>
      <trkpt lat="56.885865608511" lon="14.835455559774">
        <ele>169.6</ele>
        <time>2020-03-03T18:37:24Z</time>
      </trkpt>
      <trkpt lat="56.885966861863" lon="14.835459918362">
        <ele>170.6</ele>
        <time>2020-03-03T18:37:27Z</time>
      </trkpt>
      <trkpt lat="56.886070043052" lon="14.835449608625">
        <ele>171.6</ele>
        <time>2020-03-03T18:37:30Z</time>
      </trkpt>
      <trkpt lat="56.88615822064" lon="14.83543913125">
        <ele>172.8</ele>
        <time>2020-03-03T18:37:37Z</time>
      </trkpt>
      <trkpt lat="56.886180600313" lon="14.835460169819">
        <ele>172.8</ele>
        <time>2020-03-03T18:37:39Z</time>
      </trkpt>
      <trkpt lat="56.886234160654" lon="14.835488752098">
        <ele>173</ele>
        <time>2020-03-03T18:37:44Z</time>
      </trkpt>
      <trkpt lat="56.886402217749" lon="14.835714225208">
        <ele>173.2</ele>
        <time>2020-03-03T18:37:56Z</time>
      </trkpt>
      <trkpt lat="56.886502381454" lon="14.835909858754">
        <ele>173.2</ele>
        <time>2020-03-03T18:37:59Z</time>
      </trkpt>
      <trkpt lat="56.886552840492" lon="14.836051764321">
        <ele>172.4</ele>
        <time>2020-03-03T18:38:01Z</time>
      </trkpt>
      <trkpt lat="56.886583015332" lon="14.83616332741">
        <ele>173</ele>
        <time>2020-03-03T18:38:03Z</time>
      </trkpt>
      <trkpt lat="56.886592319241" lon="14.836226862212">
        <ele>173.8</ele>
        <time>2020-03-03T18:38:04Z</time>
      </trkpt>
      <trkpt lat="56.886631462714" lon="14.836539087987">
        <ele>175</ele>
        <time>2020-03-03T18:38:08Z</time>
      </trkpt>
      <trkpt lat="56.886638671148" lon="14.836628690498">
        <ele>174.6</ele>
        <time>2020-03-03T18:38:09Z</time>
      </trkpt>
      <trkpt lat="56.886679658639" lon="14.83679532267">
        <ele>173.4</ele>
        <time>2020-03-03T18:38:11Z</time>
      </trkpt>
      <trkpt lat="56.886719891759" lon="14.837085755505">
        <ele>172.2</ele>
        <time>2020-03-03T18:38:15Z</time>
      </trkpt>
      <trkpt lat="56.886807398795" lon="14.837428491396">
        <ele>172</ele>
        <time>2020-03-03T18:38:20Z</time>
      </trkpt>
      <trkpt lat="56.886809997184" lon="14.837492277655">
        <ele>172</ele>
        <time>2020-03-03T18:38:21Z</time>
      </trkpt>
      <trkpt lat="56.886842016042" lon="14.837628651168">
        <ele>172.6</ele>
        <time>2020-03-03T18:38:23Z</time>
      </trkpt>
      <trkpt lat="56.886887865035" lon="14.837793439322">
        <ele>172.8</ele>
        <time>2020-03-03T18:38:26Z</time>
      </trkpt>
      <trkpt lat="56.886911250536" lon="14.837838533944">
        <ele>173.2</ele>
        <time>2020-03-03T18:38:27Z</time>
      </trkpt>
      <trkpt lat="56.886985011256" lon="14.837980355692">
        <ele>174.4</ele>
        <time>2020-03-03T18:38:30Z</time>
      </trkpt>
      <trkpt lat="56.887035302656" lon="14.838069874384">
        <ele>175</ele>
        <time>2020-03-03T18:38:32Z</time>
      </trkpt>
      <trkpt lat="56.887182069725" lon="14.838287887603">
        <ele>175.2</ele>
        <time>2020-03-03T18:38:36Z</time>
      </trkpt>
      <trkpt lat="56.887220877922" lon="14.838339352469">
        <ele>175.4</ele>
        <time>2020-03-03T18:38:37Z</time>
      </trkpt>
      <trkpt lat="56.887257758282" lon="14.838390482059">
        <ele>175.6</ele>
        <time>2020-03-03T18:38:38Z</time>
      </trkpt>
      <trkpt lat="56.887337302513" lon="14.838575805868">
        <ele>175.4</ele>
        <time>2020-03-03T18:38:41Z</time>
      </trkpt>
      <trkpt lat="56.887440399883" lon="14.838848217618">
        <ele>175</ele>
        <time>2020-03-03T18:38:46Z</time>
      </trkpt>
      <trkpt lat="56.88750183921" lon="14.838964474571">
        <ele>175.2</ele>
        <time>2020-03-03T18:38:51Z</time>
      </trkpt>
      <trkpt lat="56.887492283844" lon="14.838964726028">
        <ele>175.6</ele>
        <time>2020-03-03T18:38:55Z</time>
      </trkpt>
      <trkpt lat="56.887419948047" lon="14.839032787056">
        <ele>176</ele>
        <time>2020-03-03T18:39:01Z</time>
      </trkpt>
      <trkpt lat="56.887400585858" lon="14.839048964123">
        <ele>176</ele>
        <time>2020-03-03T18:39:02Z</time>
      </trkpt>
      <trkpt lat="56.887374182873" lon="14.839075953841">
        <ele>176</ele>
        <time>2020-03-03T18:39:04Z</time>
      </trkpt>
      <trkpt lat="56.88727301334" lon="14.839120797006">
        <ele>175.8</ele>
        <time>2020-03-03T18:39:11Z</time>
      </trkpt>
      <trkpt lat="56.887200174629" lon="14.839135968245">
        <ele>175.6</ele>
        <time>2020-03-03T18:39:15Z</time>
      </trkpt>
      <trkpt lat="56.887178633146" lon="14.839143344317">
        <ele>175.6</ele>
        <time>2020-03-03T18:39:17Z</time>
      </trkpt>
      <trkpt lat="56.887122893511" lon="14.839150217475">
        <ele>175.6</ele>
        <time>2020-03-03T18:39:22Z</time>
      </trkpt>
      <trkpt lat="56.886932289105" lon="14.839174860261">
        <ele>175.4</ele>
        <time>2020-03-03T18:39:34Z</time>
      </trkpt>
      <trkpt lat="56.886923069015" lon="14.839160443393">
        <ele>175.4</ele>
        <time>2020-03-03T18:39:35Z</time>
      </trkpt>
      <trkpt lat="56.886903790645" lon="14.839153402597">
        <ele>175.2</ele>
        <time>2020-03-03T18:39:39Z</time>
      </trkpt>
      <trkpt lat="56.886891972166" lon="14.839143428136">
        <ele>175.4</ele>
        <time>2020-03-03T18:39:41Z</time>
      </trkpt>
      <trkpt lat="56.886890547243" lon="14.839124904137">
        <ele>175.4</ele>
        <time>2020-03-03T18:39:43Z</time>
      </trkpt>
      <trkpt lat="56.886902449541" lon="14.839117779522">
        <ele>175</ele>
        <time>2020-03-03T18:39:47Z</time>
      </trkpt>
      <trkpt lat="56.886896079297" lon="14.83911543259">
        <ele>174.8</ele>
        <time>2020-03-03T18:39:49Z</time>
      </trkpt>
      <trkpt lat="56.886907897776" lon="14.839099339342">
        <ele>174.8</ele>
        <time>2020-03-03T18:39:52Z</time>
      </trkpt>
      <trkpt lat="56.886780828172" lon="14.839033625246">
        <ele>175.4</ele>
        <time>2020-03-03T18:39:58Z</time>
      </trkpt>
      <trkpt lat="56.886756185386" lon="14.838991296651">
        <ele>175.4</ele>
        <time>2020-03-03T18:40:02Z</time>
      </trkpt>
      <trkpt lat="56.886773787376" lon="14.838982914751">
        <ele>175.2</ele>
        <time>2020-03-03T18:40:09Z</time>
      </trkpt>
      <trkpt lat="56.886775296118" lon="14.838906471823">
        <ele>175.2</ele>
        <time>2020-03-03T18:40:14Z</time>
      </trkpt>
      <trkpt lat="56.886778145964" lon="14.838876213164">
        <ele>175.2</ele>
        <time>2020-03-03T18:40:18Z</time>
      </trkpt>
      <trkpt lat="56.886776721041" lon="14.83883128618">
        <ele>175</ele>
        <time>2020-03-03T18:40:24Z</time>
      </trkpt>
      <trkpt lat="56.886651495455" lon="14.838727769715">
        <ele>175.8</ele>
        <time>2020-03-03T18:40:46Z</time>
      </trkpt>
      <trkpt lat="56.886615788561" lon="14.83874411442">
        <ele>175.8</ele>
        <time>2020-03-03T18:40:48Z</time>
      </trkpt>
      <trkpt lat="56.88658737392" lon="14.838763811885">
        <ele>175.8</ele>
        <time>2020-03-03T18:40:50Z</time>
      </trkpt>
      <trkpt lat="56.886554935967" lon="14.838722992032">
        <ele>176</ele>
        <time>2020-03-03T18:40:53Z</time>
      </trkpt>
      <trkpt lat="56.886538926538" lon="14.838702121101">
        <ele>176</ele>
        <time>2020-03-03T18:40:54Z</time>
      </trkpt>
      <trkpt lat="56.886464914361" lon="14.838674628469">
        <ele>176.4</ele>
        <time>2020-03-03T18:41:00Z</time>
      </trkpt>
      <trkpt lat="56.886460220497" lon="14.838657277936">
        <ele>176.4</ele>
        <time>2020-03-03T18:41:01Z</time>
      </trkpt>
      <trkpt lat="56.886440439213" lon="14.838604891061">
        <ele>176.8</ele>
        <time>2020-03-03T18:41:03Z</time>
      </trkpt>
      <trkpt lat="56.886312279962" lon="14.838364330531">
        <ele>176.6</ele>
        <time>2020-03-03T18:41:10Z</time>
      </trkpt>
      <trkpt lat="56.886184120711" lon="14.838123602363">
        <ele>176.6</ele>
        <time>2020-03-03T18:41:17Z</time>
      </trkpt>
      <trkpt lat="56.886038946203" lon="14.837906930248">
        <ele>176.8</ele>
        <time>2020-03-03T18:41:25Z</time>
      </trkpt>
      <trkpt lat="56.88586485414" lon="14.837744489026">
        <ele>176.2</ele>
        <time>2020-03-03T18:41:33Z</time>
      </trkpt>
      <trkpt lat="56.885729234998" lon="14.837600571803">
        <ele>175.4</ele>
        <time>2020-03-03T18:41:40Z</time>
      </trkpt>
      <trkpt lat="56.885637537012" lon="14.837529158015">
        <ele>174.2</ele>
        <time>2020-03-03T18:41:44Z</time>
      </trkpt>
      <trkpt lat="56.885571990554" lon="14.837468473059">
        <ele>173</ele>
        <time>2020-03-03T18:41:47Z</time>
      </trkpt>
      <trkpt lat="56.885405358382" lon="14.837340649084">
        <ele>172.8</ele>
        <time>2020-03-03T18:41:54Z</time>
      </trkpt>
      <trkpt lat="56.885223387333" lon="14.837149206488">
        <ele>171.8</ele>
        <time>2020-03-03T18:42:02Z</time>
      </trkpt>
      <trkpt lat="56.885138646324" lon="14.837041163797">
        <ele>170.8</ele>
        <time>2020-03-03T18:42:05Z</time>
      </trkpt>
      <trkpt lat="56.884972936161" lon="14.836810829185">
        <ele>169.8</ele>
        <time>2020-03-03T18:42:11Z</time>
      </trkpt>
      <trkpt lat="56.884953993067" lon="14.836774451739">
        <ele>169.8</ele>
        <time>2020-03-03T18:42:12Z</time>
      </trkpt>
      <trkpt lat="56.884803370324" lon="14.836518468513">
        <ele>169.6</ele>
        <time>2020-03-03T18:42:19Z</time>
      </trkpt>
      <trkpt lat="56.88465199321" lon="14.836273549395">
        <ele>169.4</ele>
        <time>2020-03-03T18:42:26Z</time>
      </trkpt>
      <trkpt lat="56.884481421545" lon="14.836053273063">
        <ele>169.6</ele>
        <time>2020-03-03T18:42:33Z</time>
      </trkpt>
      <trkpt lat="56.884324931472" lon="14.83585068254">
        <ele>169.6</ele>
        <time>2020-03-03T18:42:40Z</time>
      </trkpt>
      <trkpt lat="56.884203226284" lon="14.835697964322">
        <ele>168.8</ele>
        <time>2020-03-03T18:42:45Z</time>
      </trkpt>
      <trkpt lat="56.884174141091" lon="14.835671896613">
        <ele>168.4</ele>
        <time>2020-03-03T18:42:46Z</time>
      </trkpt>
      <trkpt lat="56.884122676225" lon="14.835608110354">
        <ele>167.6</ele>
        <time>2020-03-03T18:42:48Z</time>
      </trkpt>
      <trkpt lat="56.884052519722" lon="14.835492440134">
        <ele>166.2</ele>
        <time>2020-03-03T18:42:51Z</time>
      </trkpt>
      <trkpt lat="56.883984123418" lon="14.835375177353">
        <ele>164.8</ele>
        <time>2020-03-03T18:42:54Z</time>
      </trkpt>
      <trkpt lat="56.883813551753" lon="14.835163618197">
        <ele>164</ele>
        <time>2020-03-03T18:43:01Z</time>
      </trkpt>
      <trkpt lat="56.883660246802" lon="14.834981814786">
        <ele>164.2</ele>
        <time>2020-03-03T18:43:07Z</time>
      </trkpt>
      <trkpt lat="56.883485316549" lon="14.834894894483">
        <ele>164.6</ele>
        <time>2020-03-03T18:43:13Z</time>
      </trkpt>
      <trkpt lat="56.883301836758" lon="14.834807638904">
        <ele>165</ele>
        <time>2020-03-03T18:43:20Z</time>
      </trkpt>
      <trkpt lat="56.883121206813" lon="14.834692136322">
        <ele>164.4</ele>
        <time>2020-03-03T18:43:27Z</time>
      </trkpt>
      <trkpt lat="56.882961783075" lon="14.834466663212">
        <ele>164.4</ele>
        <time>2020-03-03T18:43:34Z</time>
      </trkpt>
      <trkpt lat="56.882902020128" lon="14.834335737934">
        <ele>164.4</ele>
        <time>2020-03-03T18:43:38Z</time>
      </trkpt>
      <trkpt lat="56.883032442492" lon="14.834075563758">
        <ele>164.2</ele>
        <time>2020-03-03T18:43:47Z</time>
      </trkpt>
      <trkpt lat="56.883064628988" lon="14.833996103346">
        <ele>163.8</ele>
        <time>2020-03-03T18:43:49Z</time>
      </trkpt>
      <trkpt lat="56.883074938725" lon="14.833959474443">
        <ele>163.6</ele>
        <time>2020-03-03T18:43:50Z</time>
      </trkpt>
      <trkpt lat="56.883215000274" lon="14.833695025498">
        <ele>162.4</ele>
        <time>2020-03-03T18:43:59Z</time>
      </trkpt>
      <trkpt lat="56.883383476464" lon="14.833845480603">
        <ele>163.4</ele>
        <time>2020-03-03T18:44:06Z</time>
      </trkpt>
      <trkpt lat="56.883427732896" lon="14.833874398158">
        <ele>163.8</ele>
        <time>2020-03-03T18:44:07Z</time>
      </trkpt>
      <trkpt lat="56.883593694516" lon="14.834004233789">
        <ele>164.8</ele>
        <time>2020-03-03T18:44:11Z</time>
      </trkpt>
      <trkpt lat="56.8836889129" lon="14.834062739451">
        <ele>164.8</ele>
        <time>2020-03-03T18:44:13Z</time>
      </trkpt>
      <trkpt lat="56.883850348294" lon="14.834142032225">
        <ele>164.6</ele>
        <time>2020-03-03T18:44:17Z</time>
      </trkpt>
      <trkpt lat="56.884053609369" lon="14.834278321919">
        <ele>164</ele>
        <time>2020-03-03T18:44:23Z</time>
      </trkpt>
      <trkpt lat="56.884099626" lon="14.834306988017">
        <ele>163.8</ele>
        <time>2020-03-03T18:44:24Z</time>
      </trkpt>
      <trkpt lat="56.884227198518" lon="14.834410085387">
        <ele>163.4</ele>
        <time>2020-03-03T18:44:27Z</time>
      </trkpt>
      <trkpt lat="56.884275394443" lon="14.83450035845">
        <ele>163.4</ele>
        <time>2020-03-03T18:44:29Z</time>
      </trkpt>
      <trkpt lat="56.884388633912" lon="14.834756928409">
        <ele>163.4</ele>
        <time>2020-03-03T18:44:34Z</time>
      </trkpt>
      <trkpt lat="56.884529282194" lon="14.835016767309">
        <ele>164.4</ele>
        <time>2020-03-03T18:44:39Z</time>
      </trkpt>
      <trkpt lat="56.884584267458" lon="14.835115086996">
        <ele>165.2</ele>
        <time>2020-03-03T18:44:41Z</time>
      </trkpt>
      <trkpt lat="56.88463690579" lon="14.835273337268">
        <ele>166.2</ele>
        <time>2020-03-03T18:44:44Z</time>
      </trkpt>
      <trkpt lat="56.884691723416" lon="14.835556394031">
        <ele>167.8</ele>
        <time>2020-03-03T18:44:50Z</time>
      </trkpt>
      <trkpt lat="56.884730531613" lon="14.835654126985">
        <ele>169.2</ele>
        <time>2020-03-03T18:44:52Z</time>
      </trkpt>
      <trkpt lat="56.884820720857" lon="14.835763426961">
        <ele>170.2</ele>
        <time>2020-03-03T18:44:55Z</time>
      </trkpt>
      <trkpt lat="56.884986682477" lon="14.83578865648">
        <ele>171.4</ele>
        <time>2020-03-03T18:44:59Z</time>
      </trkpt>
      <trkpt lat="56.885215508347" lon="14.835779017295">
        <ele>171.2</ele>
        <time>2020-03-03T18:45:04Z</time>
      </trkpt>
      <trkpt lat="56.885342577951" lon="14.835739538546">
        <ele>170</ele>
        <time>2020-03-03T18:45:07Z</time>
      </trkpt>
      <trkpt lat="56.885533601452" lon="14.835589334898">
        <ele>169.8</ele>
        <time>2020-03-03T18:45:12Z</time>
      </trkpt>
      <trkpt lat="56.885745663522" lon="14.835464947502">
        <ele>169.2</ele>
        <time>2020-03-03T18:45:17Z</time>
      </trkpt>
      <trkpt lat="56.885786734832" lon="14.83545338048">
        <ele>169</ele>
        <time>2020-03-03T18:45:18Z</time>
      </trkpt>
      <trkpt lat="56.885987565156" lon="14.835450111539">
        <ele>170.2</ele>
        <time>2020-03-03T18:45:24Z</time>
      </trkpt>
      <trkpt lat="56.886060655324" lon="14.835431336083">
        <ele>171.8</ele>
        <time>2020-03-03T18:45:26Z</time>
      </trkpt>
      <trkpt lat="56.886198369941" lon="14.835348858187">
        <ele>172</ele>
        <time>2020-03-03T18:45:37Z</time>
      </trkpt>
      <trkpt lat="56.886236256129" lon="14.835362353046">
        <ele>172</ele>
        <time>2020-03-03T18:45:41Z</time>
      </trkpt>
      <trkpt lat="56.886334324359" lon="14.835454386308">
        <ele>172.4</ele>
        <time>2020-03-03T18:45:52Z</time>
      </trkpt>
      <trkpt lat="56.886369528339" lon="14.835488333003">
        <ele>172.6</ele>
        <time>2020-03-03T18:45:54Z</time>
      </trkpt>
      <trkpt lat="56.886498274323" lon="14.835785136082">
        <ele>172.4</ele>
        <time>2020-03-03T18:46:00Z</time>
      </trkpt>
      <trkpt lat="56.886554433053" lon="14.835969621701">
        <ele>172.4</ele>
        <time>2020-03-03T18:46:03Z</time>
      </trkpt>
      <trkpt lat="56.886574465794" lon="14.836085878654">
        <ele>173</ele>
        <time>2020-03-03T18:46:05Z</time>
      </trkpt>
      <trkpt lat="56.88660916686" lon="14.836487371664">
        <ele>173.8</ele>
        <time>2020-03-03T18:46:10Z</time>
      </trkpt>
      <trkpt lat="56.886648310333" lon="14.836774032644">
        <ele>173.2</ele>
        <time>2020-03-03T18:46:13Z</time>
      </trkpt>
      <trkpt lat="56.886692231489" lon="14.836993051691">
        <ele>171.8</ele>
        <time>2020-03-03T18:46:16Z</time>
      </trkpt>
      <trkpt lat="56.886717125732" lon="14.837130263394">
        <ele>171.2</ele>
        <time>2020-03-03T18:46:18Z</time>
      </trkpt>
      <trkpt lat="56.886762890906" lon="14.837462857186">
        <ele>171.6</ele>
        <time>2020-03-03T18:46:23Z</time>
      </trkpt>
      <trkpt lat="56.886797675791" lon="14.837740968628">
        <ele>173</ele>
        <time>2020-03-03T18:46:28Z</time>
      </trkpt>
      <trkpt lat="56.886830784296" lon="14.837848173129">
        <ele>174</ele>
        <time>2020-03-03T18:46:30Z</time>
      </trkpt>
      <trkpt lat="56.886924913033" lon="14.838001645718">
        <ele>175.2</ele>
        <time>2020-03-03T18:46:33Z</time>
      </trkpt>
      <trkpt lat="56.887098250725" lon="14.838251174881">
        <ele>175.2</ele>
        <time>2020-03-03T18:46:38Z</time>
      </trkpt>
      <trkpt lat="56.887261446318" lon="14.838449574454">
        <ele>175.2</ele>
        <time>2020-03-03T18:46:42Z</time>
      </trkpt>
      <trkpt lat="56.887379044375" lon="14.838712347019">
        <ele>175.4</ele>
        <time>2020-03-03T18:46:46Z</time>
      </trkpt>
      <trkpt lat="56.887516256078" lon="14.838973275566">
        <ele>175</ele>
        <time>2020-03-03T18:46:52Z</time>
      </trkpt>
      <trkpt lat="56.887499743735" lon="14.838991883384">
        <ele>175.2</ele>
        <time>2020-03-03T18:46:55Z</time>
      </trkpt>
      <trkpt lat="56.88745154781" lon="14.839039660214">
        <ele>175.2</ele>
        <time>2020-03-03T18:46:58Z</time>
      </trkpt>
      <trkpt lat="56.887357419073" lon="14.839089364881">
        <ele>175.2</ele>
        <time>2020-03-03T18:47:06Z</time>
      </trkpt>
      <trkpt lat="56.887274354444" lon="14.839142422308">
        <ele>175</ele>
        <time>2020-03-03T18:47:13Z</time>
      </trkpt>
      <trkpt lat="56.887236803532" lon="14.839144266326">
        <ele>175</ele>
        <time>2020-03-03T18:47:15Z</time>
      </trkpt>
      <trkpt lat="56.887156421111" lon="14.839121383739">
        <ele>174.4</ele>
        <time>2020-03-03T18:47:20Z</time>
      </trkpt>
      <trkpt lat="56.88713555018" lon="14.8391313582">
        <ele>174.4</ele>
        <time>2020-03-03T18:47:22Z</time>
      </trkpt>
      <trkpt lat="56.88712046276" lon="14.839138566634">
        <ele>174.4</ele>
        <time>2020-03-03T18:47:24Z</time>
      </trkpt>
      <trkpt lat="56.887082492753" lon="14.83915147476">
        <ele>174.6</ele>
        <time>2020-03-03T18:47:27Z</time>
      </trkpt>
      <trkpt lat="56.887002026513" lon="14.839170920768">
        <ele>174.4</ele>
        <time>2020-03-03T18:47:32Z</time>
      </trkpt>
      <trkpt lat="56.886932959657" lon="14.839156671538">
        <ele>174.4</ele>
        <time>2020-03-03T18:47:38Z</time>
      </trkpt>
      <trkpt lat="56.886925332128" lon="14.839140745928">
        <ele>174.2</ele>
        <time>2020-03-03T18:47:40Z</time>
      </trkpt>
      <trkpt lat="56.886914016563" lon="14.839135800607">
        <ele>174</ele>
        <time>2020-03-03T18:47:41Z</time>
      </trkpt>
      <trkpt lat="56.886886523931" lon="14.839140662109">
        <ele>173.6</ele>
        <time>2020-03-03T18:47:45Z</time>
      </trkpt>
      <trkpt lat="56.886880405144" lon="14.839131274381">
        <ele>173.6</ele>
        <time>2020-03-03T18:47:46Z</time>
      </trkpt>
      <trkpt lat="56.886874453995" lon="14.839073271633">
        <ele>173.8</ele>
        <time>2020-03-03T18:47:50Z</time>
      </trkpt>
      <trkpt lat="56.88686062386" lon="14.839038235291">
        <ele>173.8</ele>
        <time>2020-03-03T18:47:52Z</time>
      </trkpt>
      <trkpt lat="56.886831538667" lon="14.838998002171">
        <ele>173.8</ele>
        <time>2020-03-03T18:47:56Z</time>
      </trkpt>
      <trkpt lat="56.886769093512" lon="14.838919966682">
        <ele>174.8</ele>
        <time>2020-03-03T18:48:02Z</time>
      </trkpt>
      <trkpt lat="56.88675417373" lon="14.8389134288">
        <ele>174.8</ele>
        <time>2020-03-03T18:48:04Z</time>
      </trkpt>
      <trkpt lat="56.886726345822" lon="14.838902951425">
        <ele>175</ele>
        <time>2020-03-03T18:48:06Z</time>
      </trkpt>
      <trkpt lat="56.886718047741" lon="14.838890462394">
        <ele>175.2</ele>
        <time>2020-03-03T18:48:10Z</time>
      </trkpt>
      <trkpt lat="56.886711845135" lon="14.838885517073">
        <ele>175.2</ele>
        <time>2020-03-03T18:48:11Z</time>
      </trkpt>
      <trkpt lat="56.886644454659" lon="14.838837069691">
        <ele>175</ele>
        <time>2020-03-03T18:48:20Z</time>
      </trkpt>
      <trkpt lat="56.88651948053" lon="14.838770014491">
        <ele>175.2</ele>
        <time>2020-03-03T18:48:36Z</time>
      </trkpt>
      <trkpt lat="56.886427614906" lon="14.83858821108">
        <ele>175.4</ele>
        <time>2020-03-03T18:48:47Z</time>
      </trkpt>
      <trkpt lat="56.88649014388" lon="14.838549319064">
        <ele>174</ele>
        <time>2020-03-03T18:48:55Z</time>
      </trkpt>
      <trkpt lat="56.886338263852" lon="14.838622241594">
        <ele>174.6</ele>
        <time>2020-03-03T18:49:19Z</time>
      </trkpt>
      <trkpt lat="56.886318566387" lon="14.838574213307">
        <ele>175.4</ele>
        <time>2020-03-03T18:49:21Z</time>
      </trkpt>
      <trkpt lat="56.886215888112" lon="14.838299622263">
        <ele>175.8</ele>
        <time>2020-03-03T18:49:30Z</time>
      </trkpt>
      <trkpt lat="56.886080604246" lon="14.838081189949">
        <ele>176.2</ele>
        <time>2020-03-03T18:49:37Z</time>
      </trkpt>
      <trkpt lat="56.886008519906" lon="14.83796459772">
        <ele>176.4</ele>
        <time>2020-03-03T18:49:41Z</time>
      </trkpt>
      <trkpt lat="56.885851275462" lon="14.837780112101">
        <ele>176</ele>
        <time>2020-03-03T18:49:49Z</time>
      </trkpt>
      <trkpt lat="56.88577432962" lon="14.837686402459">
        <ele>175.4</ele>
        <time>2020-03-03T18:49:53Z</time>
      </trkpt>
      <trkpt lat="56.885681206711" lon="14.837583975641">
        <ele>174.2</ele>
        <time>2020-03-03T18:49:57Z</time>
      </trkpt>
      <trkpt lat="56.885587832345" lon="14.837450619612">
        <ele>173</ele>
        <time>2020-03-03T18:50:02Z</time>
      </trkpt>
      <trkpt lat="56.885411309531" lon="14.837349533898">
        <ele>172</ele>
        <time>2020-03-03T18:50:09Z</time>
      </trkpt>
      <trkpt lat="56.885236798373" lon="14.83721022672">
        <ele>171.4</ele>
        <time>2020-03-03T18:50:16Z</time>
      </trkpt>
      <trkpt lat="56.885180304367" lon="14.837146021366">
        <ele>170.8</ele>
        <time>2020-03-03T18:50:18Z</time>
      </trkpt>
      <trkpt lat="56.885014594204" lon="14.836928259604">
        <ele>169.8</ele>
        <time>2020-03-03T18:50:25Z</time>
      </trkpt>
      <trkpt lat="56.884979222586" lon="14.836843853871">
        <ele>169.6</ele>
        <time>2020-03-03T18:50:27Z</time>
      </trkpt>
      <trkpt lat="56.884852991172" lon="14.836588205921">
        <ele>169.6</ele>
        <time>2020-03-03T18:50:34Z</time>
      </trkpt>
      <trkpt lat="56.884755006761" lon="14.836478235393">
        <ele>169.2</ele>
        <time>2020-03-03T18:50:38Z</time>
      </trkpt>
      <trkpt lat="56.884610838081" lon="14.83625888107">
        <ele>169.6</ele>
        <time>2020-03-03T18:50:46Z</time>
      </trkpt>
      <trkpt lat="56.884463316641" lon="14.836048830656">
        <ele>169.6</ele>
        <time>2020-03-03T18:50:53Z</time>
      </trkpt>
      <trkpt lat="56.884311268975" lon="14.835841797726">
        <ele>169.4</ele>
        <time>2020-03-03T18:51:00Z</time>
      </trkpt>
      <trkpt lat="56.884227533794" lon="14.83575931983">
        <ele>168.6</ele>
        <time>2020-03-03T18:51:03Z</time>
      </trkpt>
      <trkpt lat="56.884116892714" lon="14.835655803365">
        <ele>167.4</ele>
        <time>2020-03-03T18:51:07Z</time>
      </trkpt>
      <trkpt lat="56.884047406763" lon="14.835556645488">
        <ele>166</ele>
        <time>2020-03-03T18:51:10Z</time>
      </trkpt>
      <trkpt lat="56.884006083996" lon="14.835491266668">
        <ele>165</ele>
        <time>2020-03-03T18:51:12Z</time>
      </trkpt>
      <trkpt lat="56.883893598898" lon="14.835344834875">
        <ele>164</ele>
        <time>2020-03-03T18:51:17Z</time>
      </trkpt>
      <trkpt lat="56.883712633677" lon="14.835178118884">
        <ele>163.2</ele>
        <time>2020-03-03T18:51:24Z</time>
      </trkpt>
      <trkpt lat="56.883531500818" lon="14.835013749825">
        <ele>163.4</ele>
        <time>2020-03-03T18:51:32Z</time>
      </trkpt>
      <trkpt lat="56.883358917497" lon="14.834853990811">
        <ele>163.8</ele>
        <time>2020-03-03T18:51:41Z</time>
      </trkpt>
      <trkpt lat="56.883181640312" lon="14.834787438525">
        <ele>164</ele>
        <time>2020-03-03T18:51:48Z</time>
      </trkpt>
      <trkpt lat="56.883027664809" lon="14.834607479132">
        <ele>163.8</ele>
        <time>2020-03-03T18:51:54Z</time>
      </trkpt>
      <trkpt lat="56.882965471111" lon="14.834509997635">
        <ele>163.8</ele>
        <time>2020-03-03T18:51:57Z</time>
      </trkpt>
      <trkpt lat="56.882909480019" lon="14.834209171244">
        <ele>163.8</ele>
        <time>2020-03-03T18:52:04Z</time>
      </trkpt>
      <trkpt lat="56.883058174925" lon="14.834000126658">
        <ele>163.6</ele>
        <time>2020-03-03T18:52:12Z</time>
      </trkpt>
      <trkpt lat="56.883152638938" lon="14.833858807824">
        <ele>162.8</ele>
        <time>2020-03-03T18:52:17Z</time>
      </trkpt>
      <trkpt lat="56.883255401032" lon="14.833643560632">
        <ele>162.2</ele>
        <time>2020-03-03T18:52:23Z</time>
      </trkpt>
      <trkpt lat="56.883431085656" lon="14.833787142579">
        <ele>163</ele>
        <time>2020-03-03T18:52:28Z</time>
      </trkpt>
      <trkpt lat="56.88349361463" lon="14.833819999627">
        <ele>163.8</ele>
        <time>2020-03-03T18:52:30Z</time>
      </trkpt>
      <trkpt lat="56.883525130574" lon="14.833837769255">
        <ele>164.2</ele>
        <time>2020-03-03T18:52:31Z</time>
      </trkpt>
      <trkpt lat="56.883557568527" lon="14.833869117561">
        <ele>164.6</ele>
        <time>2020-03-03T18:52:32Z</time>
      </trkpt>
      <trkpt lat="56.883726128536" lon="14.834006245445">
        <ele>164.8</ele>
        <time>2020-03-03T18:52:37Z</time>
      </trkpt>
      <trkpt lat="56.88391354782" lon="14.834125519882">
        <ele>164.6</ele>
        <time>2020-03-03T18:52:42Z</time>
      </trkpt>
      <trkpt lat="56.884090825005" lon="14.834274382426">
        <ele>163.8</ele>
        <time>2020-03-03T18:52:47Z</time>
      </trkpt>
      <trkpt lat="56.884146899916" lon="14.834340683255">
        <ele>163.2</ele>
        <time>2020-03-03T18:52:49Z</time>
      </trkpt>
      <trkpt lat="56.884275729719" lon="14.834641593465">
        <ele>162.6</ele>
        <time>2020-03-03T18:52:55Z</time>
      </trkpt>
      <trkpt lat="56.884348903706" lon="14.834827336369">
        <ele>164.2</ele>
        <time>2020-03-03T18:52:58Z</time>
      </trkpt>
      <trkpt lat="56.884441188425" lon="14.835135203556">
        <ele>165</ele>
        <time>2020-03-03T18:53:03Z</time>
      </trkpt>
      <trkpt lat="56.884548392926" lon="14.835502246957">
        <ele>165.2</ele>
        <time>2020-03-03T18:53:09Z</time>
      </trkpt>
      <trkpt lat="56.884563228889" lon="14.835555891117">
        <ele>165.4</ele>
        <time>2020-03-03T18:53:10Z</time>
      </trkpt>
      <trkpt lat="56.884602037086" lon="14.835629987113">
        <ele>166.4</ele>
        <time>2020-03-03T18:53:12Z</time>
      </trkpt>
      <trkpt lat="56.884637073428" lon="14.835703496376">
        <ele>167.6</ele>
        <time>2020-03-03T18:53:14Z</time>
      </trkpt>
      <trkpt lat="56.8847282685" lon="14.835784130254">
        <ele>168.6</ele>
        <time>2020-03-03T18:53:17Z</time>
      </trkpt>
      <trkpt lat="56.8848456151" lon="14.835783543521">
        <ele>169.6</ele>
        <time>2020-03-03T18:53:20Z</time>
      </trkpt>
      <trkpt lat="56.884920549286" lon="14.835771641223">
        <ele>171</ele>
        <time>2020-03-03T18:53:22Z</time>
      </trkpt>
      <trkpt lat="56.885124397094" lon="14.835704083109">
        <ele>169.6</ele>
        <time>2020-03-03T18:53:27Z</time>
      </trkpt>
      <trkpt lat="56.885302344831" lon="14.835655216632">
        <ele>169.6</ele>
        <time>2020-03-03T18:53:31Z</time>
      </trkpt>
      <trkpt lat="56.885499990033" lon="14.835560417343">
        <ele>169.6</ele>
        <time>2020-03-03T18:53:36Z</time>
      </trkpt>
      <trkpt lat="56.885673830639" lon="14.835485315519">
        <ele>167.6</ele>
        <time>2020-03-03T18:53:40Z</time>
      </trkpt>
      <trkpt lat="56.885719931089" lon="14.835475508696">
        <ele>169</ele>
        <time>2020-03-03T18:53:41Z</time>
      </trkpt>
      <trkpt lat="56.88576259496" lon="14.835457990525">
        <ele>167.6</ele>
        <time>2020-03-03T18:53:42Z</time>
      </trkpt>
      <trkpt lat="56.885834846938" lon="14.835448016064">
        <ele>168.6</ele>
        <time>2020-03-03T18:53:44Z</time>
      </trkpt>
      <trkpt lat="56.886031151036" lon="14.835408285858">
        <ele>169</ele>
        <time>2020-03-03T18:53:50Z</time>
      </trkpt>
      <trkpt lat="56.886119412443" lon="14.835360173752">
        <ele>169.8</ele>
        <time>2020-03-03T18:53:53Z</time>
      </trkpt>
      <trkpt lat="56.886166015807" lon="14.835339051364">
        <ele>170.2</ele>
        <time>2020-03-03T18:53:56Z</time>
      </trkpt>
      <trkpt lat="56.886238016328" lon="14.835347181807">
        <ele>170.6</ele>
        <time>2020-03-03T18:54:02Z</time>
      </trkpt>
      <trkpt lat="56.886268526444" lon="14.835349696377">
        <ele>170.6</ele>
        <time>2020-03-03T18:54:04Z</time>
      </trkpt>
      <trkpt lat="56.886281266932" lon="14.835352713861">
        <ele>170.8</ele>
        <time>2020-03-03T18:54:05Z</time>
      </trkpt>
      <trkpt lat="56.886433733693" lon="14.835521944422">
        <ele>171</ele>
        <time>2020-03-03T18:54:17Z</time>
      </trkpt>
      <trkpt lat="56.886538339805" lon="14.835829141057">
        <ele>170.8</ele>
        <time>2020-03-03T18:54:23Z</time>
      </trkpt>
      <trkpt lat="56.886581674228" lon="14.83595377991">
        <ele>170.6</ele>
        <time>2020-03-03T18:54:25Z</time>
      </trkpt>
      <trkpt lat="56.886601539331" lon="14.836213367353">
        <ele>172.2</ele>
        <time>2020-03-03T18:54:29Z</time>
      </trkpt>
      <trkpt lat="56.886608077213" lon="14.83637287491">
        <ele>172.8</ele>
        <time>2020-03-03T18:54:31Z</time>
      </trkpt>
      <trkpt lat="56.886636072759" lon="14.836726004357">
        <ele>171.2</ele>
        <time>2020-03-03T18:54:35Z</time>
      </trkpt>
      <trkpt lat="56.886651998369" lon="14.83689003814">
        <ele>169.8</ele>
        <time>2020-03-03T18:54:37Z</time>
      </trkpt>
      <trkpt lat="56.886693991688" lon="14.837252722953">
        <ele>169.4</ele>
        <time>2020-03-03T18:54:42Z</time>
      </trkpt>
      <trkpt lat="56.886731039686" lon="14.837461767539">
        <ele>169.6</ele>
        <time>2020-03-03T18:54:45Z</time>
      </trkpt>
      <trkpt lat="56.886756772119" lon="14.837639547638">
        <ele>170.2</ele>
        <time>2020-03-03T18:54:48Z</time>
      </trkpt>
      <trkpt lat="56.886772781548" lon="14.837738370239">
        <ele>170.8</ele>
        <time>2020-03-03T18:54:50Z</time>
      </trkpt>
      <trkpt lat="56.886782756009" lon="14.837790002743">
        <ele>171.2</ele>
        <time>2020-03-03T18:54:51Z</time>
      </trkpt>
      <trkpt lat="56.88680362694" lon="14.837882371281">
        <ele>172</ele>
        <time>2020-03-03T18:54:53Z</time>
      </trkpt>
      <trkpt lat="56.886959781737" lon="14.83811882468">
        <ele>173.2</ele>
        <time>2020-03-03T18:54:57Z</time>
      </trkpt>
      <trkpt lat="56.887117780552" lon="14.838345471256">
        <ele>174</ele>
        <time>2020-03-03T18:55:01Z</time>
      </trkpt>
      <trkpt lat="56.887211909289" lon="14.838438258889">
        <ele>174</ele>
        <time>2020-03-03T18:55:03Z</time>
      </trkpt>
      <trkpt lat="56.887276282281" lon="14.838555102575">
        <ele>173.6</ele>
        <time>2020-03-03T18:55:05Z</time>
      </trkpt>
      <trkpt lat="56.887375104882" lon="14.838748808284">
        <ele>173</ele>
        <time>2020-03-03T18:55:08Z</time>
      </trkpt>
      <trkpt lat="56.887499995192" lon="14.838917955026">
        <ele>172.8</ele>
        <time>2020-03-03T18:55:12Z</time>
      </trkpt>
      <trkpt lat="56.887506365436" lon="14.838929186772">
        <ele>173.2</ele>
        <time>2020-03-03T18:55:14Z</time>
      </trkpt>
      <trkpt lat="56.887338056884" lon="14.839084754836">
        <ele>173.8</ele>
        <time>2020-03-03T18:55:28Z</time>
      </trkpt>
      <trkpt lat="56.887307211492" lon="14.83910705069">
        <ele>173.8</ele>
        <time>2020-03-03T18:55:30Z</time>
      </trkpt>
      <trkpt lat="56.887249208744" lon="14.839139572462">
        <ele>173.6</ele>
        <time>2020-03-03T18:55:33Z</time>
      </trkpt>
      <trkpt lat="56.887162958993" lon="14.83914644562">
        <ele>173.6</ele>
        <time>2020-03-03T18:55:39Z</time>
      </trkpt>
      <trkpt lat="56.887117780552" lon="14.839164299067">
        <ele>173.6</ele>
        <time>2020-03-03T18:55:42Z</time>
      </trkpt>
      <trkpt lat="56.88692600268" lon="14.839177207193">
        <ele>173.2</ele>
        <time>2020-03-03T18:55:55Z</time>
      </trkpt>
      <trkpt lat="56.886906556672" lon="14.839174860261">
        <ele>173.2</ele>
        <time>2020-03-03T18:55:57Z</time>
      </trkpt>
      <trkpt lat="56.886880488963" lon="14.83916069485">
        <ele>172.8</ele>
        <time>2020-03-03T18:56:02Z</time>
      </trkpt>
      <trkpt lat="56.886856600548" lon="14.839119036807">
        <ele>173</ele>
        <time>2020-03-03T18:56:05Z</time>
      </trkpt>
      <trkpt lat="56.886845452621" lon="14.839095232211">
        <ele>173.2</ele>
        <time>2020-03-03T18:56:07Z</time>
      </trkpt>
      <trkpt lat="56.886814942505" lon="14.839027674097">
        <ele>172.8</ele>
        <time>2020-03-03T18:56:13Z</time>
      </trkpt>
      <trkpt lat="56.886811757383" lon="14.839017951093">
        <ele>172.8</ele>
        <time>2020-03-03T18:56:14Z</time>
      </trkpt>
      <trkpt lat="56.886731291143" lon="14.838902197054">
        <ele>174.8</ele>
        <time>2020-03-03T18:56:32Z</time>
      </trkpt>
      <trkpt lat="56.886705223434" lon="14.838902029416">
        <ele>174.8</ele>
        <time>2020-03-03T18:56:35Z</time>
      </trkpt>
      <trkpt lat="56.886674210404" lon="14.838865484332">
        <ele>174</ele>
        <time>2020-03-03T18:56:38Z</time>
      </trkpt>
      <trkpt lat="56.886655518767" lon="14.83882374247">
        <ele>174.2</ele>
        <time>2020-03-03T18:56:41Z</time>
      </trkpt>
      <trkpt lat="56.886647807419" lon="14.838817539864">
        <ele>175.8</ele>
        <time>2020-03-03T18:56:45Z</time>
      </trkpt>
      <trkpt lat="56.886643365012" lon="14.838806643394">
        <ele>175.8</ele>
        <time>2020-03-03T18:56:46Z</time>
      </trkpt>
      <trkpt lat="56.886637916777" lon="14.838801027521">
        <ele>175.2</ele>
        <time>2020-03-03T18:56:47Z</time>
      </trkpt>
      <trkpt lat="56.886622242624" lon="14.838794741096">
        <ele>174.6</ele>
        <time>2020-03-03T18:56:48Z</time>
      </trkpt>
      <trkpt lat="56.886578572925" lon="14.838778647848">
        <ele>173.6</ele>
        <time>2020-03-03T18:56:51Z</time>
      </trkpt>
      <trkpt lat="56.886563150229" lon="14.838769511577">
        <ele>173.4</ele>
        <time>2020-03-03T18:56:52Z</time>
      </trkpt>
      <trkpt lat="56.886485366197" lon="14.838730032828">
        <ele>173.4</ele>
        <time>2020-03-03T18:56:57Z</time>
      </trkpt>
      <trkpt lat="56.886405067595" lon="14.83865107533">
        <ele>173.8</ele>
        <time>2020-03-03T18:57:05Z</time>
      </trkpt>
      <trkpt lat="56.8864214123" lon="14.838598856093">
        <ele>175.4</ele>
        <time>2020-03-03T18:57:11Z</time>
      </trkpt>
      <trkpt lat="56.886425435612" lon="14.838598604636">
        <ele>173.6</ele>
        <time>2020-03-03T18:57:12Z</time>
      </trkpt>
      <trkpt lat="56.886431302942" lon="14.838600867749">
        <ele>172.6</ele>
        <time>2020-03-03T18:57:13Z</time>
      </trkpt>
      <trkpt lat="56.886429458924" lon="14.838611596581">
        <ele>172.2</ele>
        <time>2020-03-03T18:57:16Z</time>
      </trkpt>
      <trkpt lat="56.886432057313" lon="14.83863012058">
        <ele>172.4</ele>
        <time>2020-03-03T18:57:19Z</time>
      </trkpt>
      <trkpt lat="56.886433063141" lon="14.838632467512">
        <ele>172.4</ele>
        <time>2020-03-03T18:57:20Z</time>
      </trkpt>
      <trkpt lat="56.886439265747" lon="14.838627689829">
        <ele>172</ele>
        <time>2020-03-03T18:57:22Z</time>
      </trkpt>
      <trkpt lat="56.886426776716" lon="14.838618218282">
        <ele>171.8</ele>
        <time>2020-03-03T18:57:26Z</time>
      </trkpt>
      <trkpt lat="56.886421328481" lon="14.838590474193">
        <ele>171.8</ele>
        <time>2020-03-03T18:57:27Z</time>
      </trkpt>
      <trkpt lat="56.886392159469" lon="14.838543703191">
        <ele>172</ele>
        <time>2020-03-03T18:57:30Z</time>
      </trkpt>
      <trkpt lat="56.886244805667" lon="14.838320074099">
        <ele>172.8</ele>
        <time>2020-03-03T18:57:39Z</time>
      </trkpt>
      <trkpt lat="56.886088734689" lon="14.838079010655">
        <ele>172.6</ele>
        <time>2020-03-03T18:57:47Z</time>
      </trkpt>
      <trkpt lat="56.885927299295" lon="14.83789167519">
        <ele>172.4</ele>
        <time>2020-03-03T18:57:56Z</time>
      </trkpt>
      <trkpt lat="56.885758320191" lon="14.837720935887">
        <ele>171.8</ele>
        <time>2020-03-03T18:58:04Z</time>
      </trkpt>
      <trkpt lat="56.885710291904" lon="14.837673913428">
        <ele>171</ele>
        <time>2020-03-03T18:58:06Z</time>
      </trkpt>
      <trkpt lat="56.885613480959" lon="14.83756478109">
        <ele>169.8</ele>
        <time>2020-03-03T18:58:10Z</time>
      </trkpt>
      <trkpt lat="56.885437461059" lon="14.837421618238">
        <ele>168.8</ele>
        <time>2020-03-03T18:58:18Z</time>
      </trkpt>
      <trkpt lat="56.885272002353" lon="14.83723872518">
        <ele>168</ele>
        <time>2020-03-03T18:58:25Z</time>
      </trkpt>
      <trkpt lat="56.885212155587" lon="14.837191199807">
        <ele>167.4</ele>
        <time>2020-03-03T18:58:27Z</time>
      </trkpt>
      <trkpt lat="56.885062035758" lon="14.837013419708">
        <ele>166.4</ele>
        <time>2020-03-03T18:58:33Z</time>
      </trkpt>
      <trkpt lat="56.884913592309" lon="14.836753664627">
        <ele>165.6</ele>
        <time>2020-03-03T18:58:40Z</time>
      </trkpt>
      <trkpt lat="56.884767495792" lon="14.836560042737">
        <ele>165.6</ele>
        <time>2020-03-03T18:58:46Z</time>
      </trkpt>
      <trkpt lat="56.884611340995" lon="14.836315375076">
        <ele>165.8</ele>
        <time>2020-03-03T18:58:54Z</time>
      </trkpt>
      <trkpt lat="56.884447391031" lon="14.836111275811">
        <ele>165.6</ele>
        <time>2020-03-03T18:59:01Z</time>
      </trkpt>
      <trkpt lat="56.88430582074" lon="14.835907344184">
        <ele>165.8</ele>
        <time>2020-03-03T18:59:08Z</time>
      </trkpt>
      <trkpt lat="56.88421361984" lon="14.835747668989">
        <ele>165.2</ele>
        <time>2020-03-03T18:59:13Z</time>
      </trkpt>
      <trkpt lat="56.884129968478" lon="14.835683128359">
        <ele>163.8</ele>
        <time>2020-03-03T18:59:16Z</time>
      </trkpt>
      <trkpt lat="56.884064338201" lon="14.835602159205">
        <ele>162.6</ele>
        <time>2020-03-03T18:59:19Z</time>
      </trkpt>
      <trkpt lat="56.883984374875" lon="14.835475843972">
        <ele>161.6</ele>
        <time>2020-03-03T18:59:23Z</time>
      </trkpt>
      <trkpt lat="56.883849929199" lon="14.83530166809">
        <ele>160.4</ele>
        <time>2020-03-03T18:59:29Z</time>
      </trkpt>
      <trkpt lat="56.883695199325" lon="14.835079631559">
        <ele>160</ele>
        <time>2020-03-03T18:59:36Z</time>
      </trkpt>
      <trkpt lat="56.883510797525" lon="14.834947784272">
        <ele>160.4</ele>
        <time>2020-03-03T18:59:44Z</time>
      </trkpt>
      <trkpt lat="56.883436533891" lon="14.834928170626">
        <ele>160.8</ele>
        <time>2020-03-03T18:59:47Z</time>
      </trkpt>
      <trkpt lat="56.883235284472" lon="14.834855331915">
        <ele>161</ele>
        <time>2020-03-03T18:59:55Z</time>
      </trkpt>
      <trkpt lat="56.883045769713" lon="14.834716192375">
        <ele>161</ele>
        <time>2020-03-03T19:00:02Z</time>
      </trkpt>
      <trkpt lat="56.882903864146" lon="14.834469093963">
        <ele>160.8</ele>
        <time>2020-03-03T19:00:09Z</time>
      </trkpt>
      <trkpt lat="56.882935212452" lon="14.834155275627">
        <ele>161</ele>
        <time>2020-03-03T19:00:16Z</time>
      </trkpt>
      <trkpt lat="56.882970500251" lon="14.834105068046">
        <ele>160.6</ele>
        <time>2020-03-03T19:00:18Z</time>
      </trkpt>
      <trkpt lat="56.883129085799" lon="14.833930221612">
        <ele>160.4</ele>
        <time>2020-03-03T19:00:25Z</time>
      </trkpt>
      <trkpt lat="56.88317929338" lon="14.83380968989">
        <ele>160</ele>
        <time>2020-03-03T19:00:28Z</time>
      </trkpt>
      <trkpt lat="56.883201589234" lon="14.833723859234">
        <ele>159.4</ele>
        <time>2020-03-03T19:00:30Z</time>
      </trkpt>
      <trkpt lat="56.883317091816" lon="14.833629227583">
        <ele>159</ele>
        <time>2020-03-03T19:00:35Z</time>
      </trkpt>
      <trkpt lat="56.8834374559" lon="14.833764092354">
        <ele>160.4</ele>
        <time>2020-03-03T19:00:39Z</time>
      </trkpt>
      <trkpt lat="56.883602495511" lon="14.833949835258">
        <ele>161.2</ele>
        <time>2020-03-03T19:00:45Z</time>
      </trkpt>
      <trkpt lat="56.883774156823" lon="14.834079167975">
        <ele>160.4</ele>
        <time>2020-03-03T19:00:49Z</time>
      </trkpt>
      <trkpt lat="56.883812378287" lon="14.834116048335">
        <ele>160.2</ele>
        <time>2020-03-03T19:00:50Z</time>
      </trkpt>
      <trkpt lat="56.88398982311" lon="14.834238256437">
        <ele>160.2</ele>
        <time>2020-03-03T19:00:55Z</time>
      </trkpt>
      <trkpt lat="56.884163998992" lon="14.834339761246">
        <ele>159.6</ele>
        <time>2020-03-03T19:01:00Z</time>
      </trkpt>
      <trkpt lat="56.884323674187" lon="14.83459339754">
        <ele>160</ele>
        <time>2020-03-03T19:01:05Z</time>
      </trkpt>
      <trkpt lat="56.884439595864" lon="14.834854158449">
        <ele>161</ele>
        <time>2020-03-03T19:01:10Z</time>
      </trkpt>
      <trkpt lat="56.88453464661" lon="14.835168228242">
        <ele>161.4</ele>
        <time>2020-03-03T19:01:15Z</time>
      </trkpt>
      <trkpt lat="56.884612095366" lon="14.835477939447">
        <ele>162.2</ele>
        <time>2020-03-03T19:01:20Z</time>
      </trkpt>
      <trkpt lat="56.884624500578" lon="14.835515238902">
        <ele>162.6</ele>
        <time>2020-03-03T19:01:21Z</time>
      </trkpt>
      <trkpt lat="56.884635397048" lon="14.835550945796">
        <ele>163.2</ele>
        <time>2020-03-03T19:01:22Z</time>
      </trkpt>
      <trkpt lat="56.884651406477" lon="14.835583383749">
        <ele>164</ele>
        <time>2020-03-03T19:01:23Z</time>
      </trkpt>
      <trkpt lat="56.884696333461" lon="14.835642727601">
        <ele>165.4</ele>
        <time>2020-03-03T19:01:25Z</time>
      </trkpt>
      <trkpt lat="56.884786690343" lon="14.835688157499">
        <ele>166.4</ele>
        <time>2020-03-03T19:01:28Z</time>
      </trkpt>
      <trkpt lat="56.884916274517" lon="14.835709615163">
        <ele>167.6</ele>
        <time>2020-03-03T19:01:31Z</time>
      </trkpt>
      <trkpt lat="56.885118613583" lon="14.83569394101">
        <ele>168</ele>
        <time>2020-03-03T19:01:35Z</time>
      </trkpt>
      <trkpt lat="56.885324892142" lon="14.835661419238">
        <ele>166.8</ele>
        <time>2020-03-03T19:01:39Z</time>
      </trkpt>
      <trkpt lat="56.88542061344" lon="14.835638033737">
        <ele>166.6</ele>
        <time>2020-03-03T19:01:41Z</time>
      </trkpt>
      <trkpt lat="56.885473838505" lon="14.835628646009">
        <ele>166.6</ele>
        <time>2020-03-03T19:01:42Z</time>
      </trkpt>
      <trkpt lat="56.885655139002" lon="14.835554382375">
        <ele>166.2</ele>
        <time>2020-03-03T19:01:46Z</time>
      </trkpt>
      <trkpt lat="56.885843396476" lon="14.835506521726">
        <ele>165.6</ele>
        <time>2020-03-03T19:01:50Z</time>
      </trkpt>
      <trkpt lat="56.885873906592" lon="14.835486237528">
        <ele>165.4</ele>
        <time>2020-03-03T19:01:51Z</time>
      </trkpt>
      <trkpt lat="56.885929478589" lon="14.835460253638">
        <ele>165.6</ele>
        <time>2020-03-03T19:01:53Z</time>
      </trkpt>
      <trkpt lat="56.886024613154" lon="14.835437790146">
        <ele>166.8</ele>
        <time>2020-03-03T19:01:56Z</time>
      </trkpt>
      <trkpt lat="56.886059900953" lon="14.835436197585">
        <ele>167.2</ele>
        <time>2020-03-03T19:01:57Z</time>
      </trkpt>
      <trkpt lat="56.886124357764" lon="14.835427648047">
        <ele>168</ele>
        <time>2020-03-03T19:01:59Z</time>
      </trkpt>
      <trkpt lat="56.886190155679" lon="14.835371154041">
        <ele>168.8</ele>
        <time>2020-03-03T19:02:04Z</time>
      </trkpt>
      <trkpt lat="56.886246398228" lon="14.835349780196">
        <ele>168.8</ele>
        <time>2020-03-03T19:02:09Z</time>
      </trkpt>
      <trkpt lat="56.886322924975" lon="14.83539470718">
        <ele>169.2</ele>
        <time>2020-03-03T19:02:15Z</time>
      </trkpt>
      <trkpt lat="56.886345472286" lon="14.83542069107">
        <ele>170.8</ele>
        <time>2020-03-03T19:02:17Z</time>
      </trkpt>
      <trkpt lat="56.886384196664" lon="14.835463606398">
        <ele>171</ele>
        <time>2020-03-03T19:02:21Z</time>
      </trkpt>
      <trkpt lat="56.886412108391" lon="14.835541138973">
        <ele>171</ele>
        <time>2020-03-03T19:02:24Z</time>
      </trkpt>
      <trkpt lat="56.886511350087" lon="14.835894100782">
        <ele>170.8</ele>
        <time>2020-03-03T19:02:30Z</time>
      </trkpt>
      <trkpt lat="56.886524928765" lon="14.83594539801">
        <ele>171</ele>
        <time>2020-03-03T19:02:31Z</time>
      </trkpt>
      <trkpt lat="56.886541357289" lon="14.836116053494">
        <ele>172.2</ele>
        <time>2020-03-03T19:02:34Z</time>
      </trkpt>
      <trkpt lat="56.886555857976" lon="14.836381089172">
        <ele>173.4</ele>
        <time>2020-03-03T19:02:37Z</time>
      </trkpt>
      <trkpt lat="56.886564994247" lon="14.836663559202">
        <ele>172.6</ele>
        <time>2020-03-03T19:02:40Z</time>
      </trkpt>
      <trkpt lat="56.886579075839" lon="14.836756933568">
        <ele>171.8</ele>
        <time>2020-03-03T19:02:41Z</time>
      </trkpt>
      <trkpt lat="56.886612854896" lon="14.836923230464">
        <ele>170.6</ele>
        <time>2020-03-03T19:02:43Z</time>
      </trkpt>
      <trkpt lat="56.886626601212" lon="14.837067147687">
        <ele>169.8</ele>
        <time>2020-03-03T19:02:45Z</time>
      </trkpt>
      <trkpt lat="56.88663347437" lon="14.83734014617">
        <ele>170</ele>
        <time>2020-03-03T19:02:49Z</time>
      </trkpt>
      <trkpt lat="56.88669130948" lon="14.837671147401">
        <ele>170.6</ele>
        <time>2020-03-03T19:02:55Z</time>
      </trkpt>
      <trkpt lat="56.88674998278" lon="14.8377567266">
        <ele>171.6</ele>
        <time>2020-03-03T19:02:57Z</time>
      </trkpt>
      <trkpt lat="56.886806728243" lon="14.837793774598">
        <ele>172</ele>
        <time>2020-03-03T19:02:58Z</time>
      </trkpt>
      <trkpt lat="56.887000098676" lon="14.838044141951">
        <ele>172.8</ele>
        <time>2020-03-03T19:03:03Z</time>
      </trkpt>
      <trkpt lat="56.887026920756" lon="14.838099713948">
        <ele>173.2</ele>
        <time>2020-03-03T19:03:04Z</time>
      </trkpt>
      <trkpt lat="56.887105040064" lon="14.83821856929">
        <ele>173.8</ele>
        <time>2020-03-03T19:03:06Z</time>
      </trkpt>
      <trkpt lat="56.887280305593" lon="14.838464661874">
        <ele>174</ele>
        <time>2020-03-03T19:03:10Z</time>
      </trkpt>
      <trkpt lat="56.887343924214" lon="14.838591731478">
        <ele>173.8</ele>
        <time>2020-03-03T19:03:12Z</time>
      </trkpt>
      <trkpt lat="56.887397484555" lon="14.838723830222">
        <ele>173.6</ele>
        <time>2020-03-03T19:03:14Z</time>
      </trkpt>
      <trkpt lat="56.887480213908" lon="14.83888912129">
        <ele>173.2</ele>
        <time>2020-03-03T19:03:17Z</time>
      </trkpt>
      <trkpt lat="56.887508460911" lon="14.838931701342">
        <ele>173.2</ele>
        <time>2020-03-03T19:03:19Z</time>
      </trkpt>
      <trkpt lat="56.887489098722" lon="14.838956427947">
        <ele>173.4</ele>
        <time>2020-03-03T19:03:23Z</time>
      </trkpt>
      <trkpt lat="56.887471580551" lon="14.838984926407">
        <ele>173.6</ele>
        <time>2020-03-03T19:03:25Z</time>
      </trkpt>
      <trkpt lat="56.887426905024" lon="14.839020549482">
        <ele>173.4</ele>
        <time>2020-03-03T19:03:29Z</time>
      </trkpt>
      <trkpt lat="56.887255495169" lon="14.839114929676">
        <ele>173.2</ele>
        <time>2020-03-03T19:03:41Z</time>
      </trkpt>
      <trkpt lat="56.887161953165" lon="14.839099842256">
        <ele>173.2</ele>
        <time>2020-03-03T19:03:47Z</time>
      </trkpt>
      <trkpt lat="56.887112164679" lon="14.839113253296">
        <ele>173</ele>
        <time>2020-03-03T19:03:51Z</time>
      </trkpt>
      <trkpt lat="56.887064723125" lon="14.839144685421">
        <ele>173</ele>
        <time>2020-03-03T19:03:56Z</time>
      </trkpt>
      <trkpt lat="56.887033458638" lon="14.839185086179">
        <ele>172.8</ele>
        <time>2020-03-03T19:03:58Z</time>
      </trkpt>
      <trkpt lat="56.886983753971" lon="14.839223642919">
        <ele>172.8</ele>
        <time>2020-03-03T19:04:01Z</time>
      </trkpt>
      <trkpt lat="56.886984759799" lon="14.839223810557">
        <ele>172.6</ele>
        <time>2020-03-03T19:04:05Z</time>
      </trkpt>
      <trkpt lat="56.887561685976" lon="14.838834555121">
        <ele>172.4</ele>
        <time>2020-03-03T19:07:02Z</time>
      </trkpt>
      <trkpt lat="56.887589346246" lon="14.838814857656">
        <ele>172.2</ele>
        <time>2020-03-03T19:07:04Z</time>
      </trkpt>
      <trkpt lat="56.88761583305" lon="14.838797255666">
        <ele>172.8</ele>
        <time>2020-03-03T19:07:06Z</time>
      </trkpt>
      <trkpt lat="56.887631591022" lon="14.838791723612">
        <ele>172</ele>
        <time>2020-03-03T19:07:07Z</time>
      </trkpt>
      <trkpt lat="56.887706189932" lon="14.838764985351">
        <ele>172</ele>
        <time>2020-03-03T19:07:12Z</time>
      </trkpt>
      <trkpt lat="56.887740220446" lon="14.838543451734">
        <ele>171.8</ele>
        <time>2020-03-03T19:07:20Z</time>
      </trkpt>
      <trkpt lat="56.887782716679" lon="14.83821940748">
        <ele>171.8</ele>
        <time>2020-03-03T19:07:29Z</time>
      </trkpt>
      <trkpt lat="56.887836360839" lon="14.837874576114">
        <ele>172</ele>
        <time>2020-03-03T19:07:38Z</time>
      </trkpt>
      <trkpt lat="56.887841641436" lon="14.837848256948">
        <ele>172</ele>
        <time>2020-03-03T19:07:39Z</time>
      </trkpt>
      <trkpt lat="56.887852705544" lon="14.837507532713">
        <ele>172.4</ele>
        <time>2020-03-03T19:07:46Z</time>
      </trkpt>
      <trkpt lat="56.887872989742" lon="14.837173849274">
        <ele>171.8</ele>
        <time>2020-03-03T19:07:55Z</time>
      </trkpt>
      <trkpt lat="56.887988659962" lon="14.836903868275">
        <ele>171.2</ele>
        <time>2020-03-03T19:08:05Z</time>
      </trkpt>
      <trkpt lat="56.888022103743" lon="14.836781660173">
        <ele>171.2</ele>
        <time>2020-03-03T19:08:08Z</time>
      </trkpt>
      <trkpt lat="56.888031156195" lon="14.836737822836">
        <ele>171</ele>
        <time>2020-03-03T19:08:09Z</time>
      </trkpt>
      <trkpt lat="56.888110951883" lon="14.836428363088">
        <ele>170.4</ele>
        <time>2020-03-03T19:08:16Z</time>
      </trkpt>
      <trkpt lat="56.888172642667" lon="14.836070958872">
        <ele>170.6</ele>
        <time>2020-03-03T19:08:24Z</time>
      </trkpt>
      <trkpt lat="56.88818328768" lon="14.835713722294">
        <ele>171.6</ele>
        <time>2020-03-03T19:08:32Z</time>
      </trkpt>
      <trkpt lat="56.888177252712" lon="14.835524878087">
        <ele>172</ele>
        <time>2020-03-03T19:08:36Z</time>
      </trkpt>
      <trkpt lat="56.888208349561" lon="14.835193373942">
        <ele>172.2</ele>
        <time>2020-03-03T19:08:44Z</time>
      </trkpt>
      <trkpt lat="56.8882570484" lon="14.834860025779">
        <ele>171.2</ele>
        <time>2020-03-03T19:08:52Z</time>
      </trkpt>
      <trkpt lat="56.888271381449" lon="14.834769752716">
        <ele>170.6</ele>
        <time>2020-03-03T19:08:54Z</time>
      </trkpt>
      <trkpt lat="56.88827045944" lon="14.834423161151">
        <ele>169.8</ele>
        <time>2020-03-03T19:09:01Z</time>
      </trkpt>
      <trkpt lat="56.888269369793" lon="14.834222749922">
        <ele>169.6</ele>
        <time>2020-03-03T19:09:05Z</time>
      </trkpt>
      <trkpt lat="56.888235004003" lon="14.833865764801">
        <ele>169.4</ele>
        <time>2020-03-03T19:09:12Z</time>
      </trkpt>
      <trkpt lat="56.888190412295" lon="14.833543396927">
        <ele>168.6</ele>
        <time>2020-03-03T19:09:19Z</time>
      </trkpt>
      <trkpt lat="56.888186891897" lon="14.833501571246">
        <ele>168.6</ele>
        <time>2020-03-03T19:09:20Z</time>
      </trkpt>
      <trkpt lat="56.888152107012" lon="14.833149699084">
        <ele>168</ele>
        <time>2020-03-03T19:09:28Z</time>
      </trkpt>
      <trkpt lat="56.888130733167" lon="14.832950377502">
        <ele>167.6</ele>
        <time>2020-03-03T19:09:33Z</time>
      </trkpt>
      <trkpt lat="56.888110868064" lon="14.832629434551">
        <ele>166.4</ele>
        <time>2020-03-03T19:09:40Z</time>
      </trkpt>
      <trkpt lat="56.888094020445" lon="14.832296421664">
        <ele>165.8</ele>
        <time>2020-03-03T19:09:48Z</time>
      </trkpt>
      <trkpt lat="56.88809108678" lon="14.83222131984">
        <ele>165.4</ele>
        <time>2020-03-03T19:09:50Z</time>
      </trkpt>
      <trkpt lat="56.88810030687" lon="14.832046473406">
        <ele>164.4</ele>
        <time>2020-03-03T19:09:54Z</time>
      </trkpt>
      <trkpt lat="56.888133247737" lon="14.831828627825">
        <ele>163.8</ele>
        <time>2020-03-03T19:10:00Z</time>
      </trkpt>
      <trkpt lat="56.888152945202" lon="14.831760650616">
        <ele>163.2</ele>
        <time>2020-03-03T19:10:02Z</time>
      </trkpt>
      <trkpt lat="56.888191250485" lon="14.831625282931">
        <ele>162</ele>
        <time>2020-03-03T19:10:06Z</time>
      </trkpt>
      <trkpt lat="56.888215055081" lon="14.831455046542">
        <ele>161</ele>
        <time>2020-03-03T19:10:10Z</time>
      </trkpt>
      <trkpt lat="56.888222263515" lon="14.831281373574">
        <ele>159.6</ele>
        <time>2020-03-03T19:10:14Z</time>
      </trkpt>
      <trkpt lat="56.888240452238" lon="14.831158746377">
        <ele>158.6</ele>
        <time>2020-03-03T19:10:17Z</time>
      </trkpt>
      <trkpt lat="56.888268280146" lon="14.83081399883">
        <ele>158</ele>
        <time>2020-03-03T19:10:24Z</time>
      </trkpt>
      <trkpt lat="56.888298371167" lon="14.830617191818">
        <ele>157.8</ele>
        <time>2020-03-03T19:10:29Z</time>
      </trkpt>
      <trkpt lat="56.888322091944" lon="14.830507808023">
        <ele>157.6</ele>
        <time>2020-03-03T19:10:32Z</time>
      </trkpt>
      <trkpt lat="56.888401803813" lon="14.830205221433">
        <ele>157.2</ele>
        <time>2020-03-03T19:10:40Z</time>
      </trkpt>
      <trkpt lat="56.88849509436" lon="14.829881260998">
        <ele>156.8</ele>
        <time>2020-03-03T19:10:48Z</time>
      </trkpt>
      <trkpt lat="56.888668683509" lon="14.829710521695">
        <ele>156.8</ele>
        <time>2020-03-03T19:10:58Z</time>
      </trkpt>
      <trkpt lat="56.888765410635" lon="14.829701133967">
        <ele>157</ele>
        <time>2020-03-03T19:11:02Z</time>
      </trkpt>
      <trkpt lat="56.88894771696" lon="14.829707671849">
        <ele>157</ele>
        <time>2020-03-03T19:11:08Z</time>
      </trkpt>
      <trkpt lat="56.889134800968" lon="14.829644975237">
        <ele>157</ele>
        <time>2020-03-03T19:11:16Z</time>
      </trkpt>
      <trkpt lat="56.889310820868" lon="14.829571465974">
        <ele>157.6</ele>
        <time>2020-03-03T19:11:23Z</time>
      </trkpt>
      <trkpt lat="56.889489690614" lon="14.829543218971">
        <ele>157.4</ele>
        <time>2020-03-03T19:11:30Z</time>
      </trkpt>
      <trkpt lat="56.889670739654" lon="14.829513882321">
        <ele>157.8</ele>
        <time>2020-03-03T19:11:38Z</time>
      </trkpt>
      <trkpt lat="56.889757911414" lon="14.829430817692">
        <ele>157.6</ele>
        <time>2020-03-03T19:11:42Z</time>
      </trkpt>
      <trkpt lat="56.889743578365" lon="14.829124626885">
        <ele>157.8</ele>
        <time>2020-03-03T19:11:48Z</time>
      </trkpt>
      <trkpt lat="56.889815495067" lon="14.828801923735">
        <ele>157.8</ele>
        <time>2020-03-03T19:11:55Z</time>
      </trkpt>
      <trkpt lat="56.889930327097" lon="14.828523057922">
        <ele>157.6</ele>
        <time>2020-03-03T19:12:03Z</time>
      </trkpt>
      <trkpt lat="56.889974918805" lon="14.828435886162">
        <ele>157.6</ele>
        <time>2020-03-03T19:12:06Z</time>
      </trkpt>
      <trkpt lat="56.890148256497" lon="14.828282245935">
        <ele>157.6</ele>
        <time>2020-03-03T19:12:15Z</time>
      </trkpt>
      <trkpt lat="56.890169211247" lon="14.828200270953">
        <ele>157.4</ele>
        <time>2020-03-03T19:12:17Z</time>
      </trkpt>
      <trkpt lat="56.890141970072" lon="14.827872287206">
        <ele>157.2</ele>
        <time>2020-03-03T19:12:23Z</time>
      </trkpt>
      <trkpt lat="56.890121769693" lon="14.827536759749">
        <ele>157</ele>
        <time>2020-03-03T19:12:29Z</time>
      </trkpt>
      <trkpt lat="56.890178431337" lon="14.827356716537">
        <ele>157</ele>
        <time>2020-03-03T19:12:34Z</time>
      </trkpt>
      <trkpt lat="56.890247414374" lon="14.827012471904">
        <ele>157</ele>
        <time>2020-03-03T19:12:43Z</time>
      </trkpt>
      <trkpt lat="56.890267950029" lon="14.826681889768">
        <ele>157.2</ele>
        <time>2020-03-03T19:12:50Z</time>
      </trkpt>
      <trkpt lat="56.890252694971" lon="14.826336052574">
        <ele>157.6</ele>
        <time>2020-03-03T19:12:57Z</time>
      </trkpt>
      <trkpt lat="56.890300220344" lon="14.826001195669">
        <ele>157.6</ele>
        <time>2020-03-03T19:13:04Z</time>
      </trkpt>
      <trkpt lat="56.890387895018" lon="14.825676648501">
        <ele>157.6</ele>
        <time>2020-03-03T19:13:12Z</time>
      </trkpt>
      <trkpt lat="56.890509181111" lon="14.825432986668">
        <ele>158.4</ele>
        <time>2020-03-03T19:13:20Z</time>
      </trkpt>
      <trkpt lat="56.890653014515" lon="14.825182786953">
        <ele>158.2</ele>
        <time>2020-03-03T19:13:28Z</time>
      </trkpt>
      <trkpt lat="56.890745718329" lon="14.824883888399">
        <ele>158.6</ele>
        <time>2020-03-03T19:13:35Z</time>
      </trkpt>
      <trkpt lat="56.890816126289" lon="14.824699067504">
        <ele>159.6</ele>
        <time>2020-03-03T19:13:41Z</time>
      </trkpt>
      <trkpt lat="56.890858622522" lon="14.82461558378">
        <ele>160</ele>
        <time>2020-03-03T19:13:44Z</time>
      </trkpt>
      <trkpt lat="56.89091327251" lon="14.824554312091">
        <ele>160.8</ele>
        <time>2020-03-03T19:13:47Z</time>
      </trkpt>
      <trkpt lat="56.890971694353" lon="14.824492537488">
        <ele>162</ele>
        <time>2020-03-03T19:13:50Z</time>
      </trkpt>
      <trkpt lat="56.891037911363" lon="14.824384746254">
        <ele>162.6</ele>
        <time>2020-03-03T19:13:54Z</time>
      </trkpt>
      <trkpt lat="56.891183756423" lon="14.824164721379">
        <ele>162.2</ele>
        <time>2020-03-03T19:14:02Z</time>
      </trkpt>
      <trkpt lat="56.891261791912" lon="14.824122057508">
        <ele>162.4</ele>
        <time>2020-03-03T19:14:06Z</time>
      </trkpt>
    </trkseg>
  </trk>
</gpx>